<?xml version="1.0" encoding="UTF-8" standalone="no" ?>
<gpx xmlns="http://www.topografix.com/GPX/1/1" xmlns:xsi="http://www.w3.org/2001/XMLSchema-instance" xsi:schemaLocation="http://www.topografix.com/GPX/1/1 http://www.topografix.com/GPX/1/1/gpx.xsd" version="1.1" creator="VisuGPX - https://www.visugpx.com">
  <metadata>
    <name>Le Dresnay, commune de Loguivy Plougras (22780)</name>
    <desc><![CDATA[File with points/tracks from Locus Map/3.30.4]]></desc>
  </metadata>
  <trk>
    <name><![CDATA[2018-05-03 14:23:58]]></name>
    <desc><![CDATA[plougras]]></desc>
    <trkseg>
      <trkpt lat="48.50266" lon="-3.44775">
        <ele>177.31</ele>
        <time>2018-05-03T12:24:04.000Z</time>
      </trkpt>
      <trkpt lat="48.50266" lon="-3.44789">
        <ele>175.76</ele>
        <time>2018-05-03T12:24:14.000Z</time>
      </trkpt>
      <trkpt lat="48.50265" lon="-3.44799">
        <ele>180.01</ele>
        <time>2018-05-03T12:24:24.000Z</time>
      </trkpt>
      <trkpt lat="48.50263" lon="-3.44812">
        <ele>178.56</ele>
        <time>2018-05-03T12:24:34.000Z</time>
      </trkpt>
      <trkpt lat="48.50262" lon="-3.44824">
        <ele>180.25</ele>
        <time>2018-05-03T12:24:44.000Z</time>
      </trkpt>
      <trkpt lat="48.50261" lon="-3.44839">
        <ele>176.57</ele>
        <time>2018-05-03T12:24:54.000Z</time>
      </trkpt>
      <trkpt lat="48.5026" lon="-3.44847">
        <ele>175.32</ele>
        <time>2018-05-03T12:25:04.000Z</time>
      </trkpt>
      <trkpt lat="48.50262" lon="-3.44867">
        <ele>175.3</ele>
        <time>2018-05-03T12:25:14.000Z</time>
      </trkpt>
      <trkpt lat="48.50265" lon="-3.44879">
        <ele>175.5</ele>
        <time>2018-05-03T12:25:24.000Z</time>
      </trkpt>
      <trkpt lat="48.50268" lon="-3.44901">
        <ele>179.25</ele>
        <time>2018-05-03T12:25:34.000Z</time>
      </trkpt>
      <trkpt lat="48.5027" lon="-3.44917">
        <ele>178.32</ele>
        <time>2018-05-03T12:25:44.000Z</time>
      </trkpt>
      <trkpt lat="48.50275" lon="-3.44927">
        <ele>181.19</ele>
        <time>2018-05-03T12:25:54.000Z</time>
      </trkpt>
      <trkpt lat="48.50282" lon="-3.44934">
        <ele>179.27</ele>
        <time>2018-05-03T12:26:04.000Z</time>
      </trkpt>
      <trkpt lat="48.50293" lon="-3.44935">
        <ele>178.21</ele>
        <time>2018-05-03T12:26:14.000Z</time>
      </trkpt>
      <trkpt lat="48.50297" lon="-3.44945">
        <ele>176.26</ele>
        <time>2018-05-03T12:26:24.000Z</time>
      </trkpt>
      <trkpt lat="48.50305" lon="-3.44955">
        <ele>178.93</ele>
        <time>2018-05-03T12:26:34.000Z</time>
      </trkpt>
      <trkpt lat="48.50315" lon="-3.44966">
        <ele>175.9</ele>
        <time>2018-05-03T12:26:44.000Z</time>
      </trkpt>
      <trkpt lat="48.50323" lon="-3.44977">
        <ele>172.6</ele>
        <time>2018-05-03T12:26:54.000Z</time>
      </trkpt>
      <trkpt lat="48.50329" lon="-3.44989">
        <ele>169.25</ele>
        <time>2018-05-03T12:27:04.000Z</time>
      </trkpt>
      <trkpt lat="48.50341" lon="-3.45001">
        <ele>151.78</ele>
        <time>2018-05-03T12:27:14.000Z</time>
      </trkpt>
      <trkpt lat="48.50346" lon="-3.45011">
        <ele>162.91</ele>
        <time>2018-05-03T12:27:24.000Z</time>
      </trkpt>
      <trkpt lat="48.50351" lon="-3.45025">
        <ele>163.29</ele>
        <time>2018-05-03T12:27:34.000Z</time>
      </trkpt>
      <trkpt lat="48.5036" lon="-3.45038">
        <ele>167.31</ele>
        <time>2018-05-03T12:27:44.000Z</time>
      </trkpt>
      <trkpt lat="48.50365" lon="-3.45056">
        <ele>173.04</ele>
        <time>2018-05-03T12:27:54.000Z</time>
      </trkpt>
      <trkpt lat="48.50371" lon="-3.45067">
        <ele>169.63</ele>
        <time>2018-05-03T12:28:04.000Z</time>
      </trkpt>
      <trkpt lat="48.5038" lon="-3.45076">
        <ele>166.25</ele>
        <time>2018-05-03T12:28:14.000Z</time>
      </trkpt>
      <trkpt lat="48.50387" lon="-3.4509">
        <ele>169.99</ele>
        <time>2018-05-03T12:28:24.000Z</time>
      </trkpt>
      <trkpt lat="48.50394" lon="-3.45099">
        <ele>171.45</ele>
        <time>2018-05-03T12:28:34.000Z</time>
      </trkpt>
      <trkpt lat="48.50401" lon="-3.4511">
        <ele>172</ele>
        <time>2018-05-03T12:28:44.000Z</time>
      </trkpt>
      <trkpt lat="48.50408" lon="-3.45113">
        <ele>173.19</ele>
        <time>2018-05-03T12:28:54.000Z</time>
      </trkpt>
      <trkpt lat="48.50415" lon="-3.45122">
        <ele>169.31</ele>
        <time>2018-05-03T12:29:04.000Z</time>
      </trkpt>
      <trkpt lat="48.50427" lon="-3.45135">
        <ele>169.02</ele>
        <time>2018-05-03T12:29:14.000Z</time>
      </trkpt>
      <trkpt lat="48.50432" lon="-3.45139">
        <ele>166.01</ele>
        <time>2018-05-03T12:29:24.000Z</time>
      </trkpt>
      <trkpt lat="48.50439" lon="-3.45146">
        <ele>166.3</ele>
        <time>2018-05-03T12:29:34.000Z</time>
      </trkpt>
      <trkpt lat="48.50445" lon="-3.45158">
        <ele>165.2</ele>
        <time>2018-05-03T12:29:44.000Z</time>
      </trkpt>
      <trkpt lat="48.50452" lon="-3.45174">
        <ele>163.26</ele>
        <time>2018-05-03T12:29:54.000Z</time>
      </trkpt>
      <trkpt lat="48.50457" lon="-3.45187">
        <ele>161.28</ele>
        <time>2018-05-03T12:30:04.000Z</time>
      </trkpt>
      <trkpt lat="48.50463" lon="-3.45202">
        <ele>163.21</ele>
        <time>2018-05-03T12:30:14.000Z</time>
      </trkpt>
      <trkpt lat="48.50468" lon="-3.45214">
        <ele>155.52</ele>
        <time>2018-05-03T12:30:24.000Z</time>
      </trkpt>
      <trkpt lat="48.50475" lon="-3.45221">
        <ele>156.12</ele>
        <time>2018-05-03T12:30:34.000Z</time>
      </trkpt>
      <trkpt lat="48.50485" lon="-3.45235">
        <ele>156.88</ele>
        <time>2018-05-03T12:30:44.000Z</time>
      </trkpt>
      <trkpt lat="48.50492" lon="-3.45242">
        <ele>158.22</ele>
        <time>2018-05-03T12:30:54.000Z</time>
      </trkpt>
      <trkpt lat="48.50491" lon="-3.45245">
        <ele>158.2</ele>
        <time>2018-05-03T12:31:04.000Z</time>
      </trkpt>
      <trkpt lat="48.50491" lon="-3.45245">
        <ele>159.25</ele>
        <time>2018-05-03T12:31:14.000Z</time>
      </trkpt>
      <trkpt lat="48.50501" lon="-3.45249">
        <ele>159.78</ele>
        <time>2018-05-03T12:31:24.000Z</time>
      </trkpt>
      <trkpt lat="48.50511" lon="-3.45262">
        <ele>160.23</ele>
        <time>2018-05-03T12:31:34.000Z</time>
      </trkpt>
      <trkpt lat="48.50517" lon="-3.45271">
        <ele>158.69</ele>
        <time>2018-05-03T12:31:44.000Z</time>
      </trkpt>
      <trkpt lat="48.50526" lon="-3.45278">
        <ele>158.2</ele>
        <time>2018-05-03T12:31:54.000Z</time>
      </trkpt>
      <trkpt lat="48.50535" lon="-3.45288">
        <ele>159.19</ele>
        <time>2018-05-03T12:32:04.000Z</time>
      </trkpt>
      <trkpt lat="48.50544" lon="-3.45294">
        <ele>159.24</ele>
        <time>2018-05-03T12:32:14.000Z</time>
      </trkpt>
      <trkpt lat="48.50546" lon="-3.45306">
        <ele>161.36</ele>
        <time>2018-05-03T12:32:24.000Z</time>
      </trkpt>
      <trkpt lat="48.50557" lon="-3.4531">
        <ele>157.52</ele>
        <time>2018-05-03T12:32:34.000Z</time>
      </trkpt>
      <trkpt lat="48.50561" lon="-3.45309">
        <ele>157.5</ele>
        <time>2018-05-03T12:32:44.000Z</time>
      </trkpt>
      <trkpt lat="48.5057" lon="-3.45321">
        <ele>156.87</ele>
        <time>2018-05-03T12:32:54.000Z</time>
      </trkpt>
      <trkpt lat="48.50578" lon="-3.45335">
        <ele>157.99</ele>
        <time>2018-05-03T12:33:04.000Z</time>
      </trkpt>
      <trkpt lat="48.50586" lon="-3.45349">
        <ele>154.8</ele>
        <time>2018-05-03T12:33:14.000Z</time>
      </trkpt>
      <trkpt lat="48.50595" lon="-3.45362">
        <ele>157.26</ele>
        <time>2018-05-03T12:33:24.000Z</time>
      </trkpt>
      <trkpt lat="48.50601" lon="-3.45374">
        <ele>159.49</ele>
        <time>2018-05-03T12:33:34.000Z</time>
      </trkpt>
      <trkpt lat="48.50609" lon="-3.45388">
        <ele>161.25</ele>
        <time>2018-05-03T12:33:44.000Z</time>
      </trkpt>
      <trkpt lat="48.50619" lon="-3.454">
        <ele>163.01</ele>
        <time>2018-05-03T12:33:54.000Z</time>
      </trkpt>
      <trkpt lat="48.50628" lon="-3.45411">
        <ele>166.19</ele>
        <time>2018-05-03T12:34:04.000Z</time>
      </trkpt>
      <trkpt lat="48.50637" lon="-3.45422">
        <ele>167.45</ele>
        <time>2018-05-03T12:34:14.000Z</time>
      </trkpt>
      <trkpt lat="48.50648" lon="-3.45433">
        <ele>163.48</ele>
        <time>2018-05-03T12:34:24.000Z</time>
      </trkpt>
      <trkpt lat="48.50654" lon="-3.4544">
        <ele>161.5</ele>
        <time>2018-05-03T12:34:34.000Z</time>
      </trkpt>
      <trkpt lat="48.5066" lon="-3.45451">
        <ele>161.79</ele>
        <time>2018-05-03T12:34:44.000Z</time>
      </trkpt>
      <trkpt lat="48.5067" lon="-3.4546">
        <ele>162.99</ele>
        <time>2018-05-03T12:34:54.000Z</time>
      </trkpt>
      <trkpt lat="48.50678" lon="-3.45472">
        <ele>161.44</ele>
        <time>2018-05-03T12:35:04.000Z</time>
      </trkpt>
      <trkpt lat="48.50684" lon="-3.45479">
        <ele>165.91</ele>
        <time>2018-05-03T12:35:14.000Z</time>
      </trkpt>
      <trkpt lat="48.50693" lon="-3.45489">
        <ele>164.44</ele>
        <time>2018-05-03T12:35:24.000Z</time>
      </trkpt>
      <trkpt lat="48.50704" lon="-3.45502">
        <ele>164.04</ele>
        <time>2018-05-03T12:35:34.000Z</time>
      </trkpt>
      <trkpt lat="48.50708" lon="-3.45509">
        <ele>163.25</ele>
        <time>2018-05-03T12:35:44.000Z</time>
      </trkpt>
      <trkpt lat="48.50717" lon="-3.45512">
        <ele>163.25</ele>
        <time>2018-05-03T12:35:54.000Z</time>
      </trkpt>
      <trkpt lat="48.50727" lon="-3.45514">
        <ele>161.42</ele>
        <time>2018-05-03T12:36:04.000Z</time>
      </trkpt>
      <trkpt lat="48.50742" lon="-3.45518">
        <ele>162.26</ele>
        <time>2018-05-03T12:36:14.000Z</time>
      </trkpt>
      <trkpt lat="48.50748" lon="-3.45528">
        <ele>163.06</ele>
        <time>2018-05-03T12:36:24.000Z</time>
      </trkpt>
      <trkpt lat="48.50756" lon="-3.45532">
        <ele>160.93</ele>
        <time>2018-05-03T12:36:34.000Z</time>
      </trkpt>
      <trkpt lat="48.5076" lon="-3.45531">
        <ele>161.43</ele>
        <time>2018-05-03T12:36:44.000Z</time>
      </trkpt>
      <trkpt lat="48.5077" lon="-3.45532">
        <ele>163.2</ele>
        <time>2018-05-03T12:36:54.000Z</time>
      </trkpt>
      <trkpt lat="48.50772" lon="-3.45534">
        <ele>165.23</ele>
        <time>2018-05-03T12:37:04.000Z</time>
      </trkpt>
      <trkpt lat="48.50775" lon="-3.4554">
        <ele>170.84</ele>
        <time>2018-05-03T12:37:14.000Z</time>
      </trkpt>
      <trkpt lat="48.50792" lon="-3.45557">
        <ele>170.13</ele>
        <time>2018-05-03T12:37:24.000Z</time>
      </trkpt>
      <trkpt lat="48.50803" lon="-3.45566">
        <ele>170.69</ele>
        <time>2018-05-03T12:37:34.000Z</time>
      </trkpt>
      <trkpt lat="48.50814" lon="-3.45571">
        <ele>169.24</ele>
        <time>2018-05-03T12:37:44.000Z</time>
      </trkpt>
      <trkpt lat="48.50826" lon="-3.45583">
        <ele>166.14</ele>
        <time>2018-05-03T12:37:54.000Z</time>
      </trkpt>
      <trkpt lat="48.50831" lon="-3.45593">
        <ele>167.41</ele>
        <time>2018-05-03T12:38:04.000Z</time>
      </trkpt>
      <trkpt lat="48.50836" lon="-3.45601">
        <ele>166.25</ele>
        <time>2018-05-03T12:38:14.000Z</time>
      </trkpt>
      <trkpt lat="48.50842" lon="-3.45613">
        <ele>167.22</ele>
        <time>2018-05-03T12:38:24.000Z</time>
      </trkpt>
      <trkpt lat="48.50852" lon="-3.45622">
        <ele>165.04</ele>
        <time>2018-05-03T12:38:34.000Z</time>
      </trkpt>
      <trkpt lat="48.5086" lon="-3.45632">
        <ele>165.3</ele>
        <time>2018-05-03T12:38:44.000Z</time>
      </trkpt>
      <trkpt lat="48.50871" lon="-3.45644">
        <ele>165.73</ele>
        <time>2018-05-03T12:38:54.000Z</time>
      </trkpt>
      <trkpt lat="48.50879" lon="-3.4566">
        <ele>164.37</ele>
        <time>2018-05-03T12:39:04.000Z</time>
      </trkpt>
      <trkpt lat="48.50887" lon="-3.4566">
        <ele>163.42</ele>
        <time>2018-05-03T12:39:14.000Z</time>
      </trkpt>
      <trkpt lat="48.50893" lon="-3.45662">
        <ele>167.23</ele>
        <time>2018-05-03T12:39:24.000Z</time>
      </trkpt>
      <trkpt lat="48.50903" lon="-3.45668">
        <ele>167.12</ele>
        <time>2018-05-03T12:39:34.000Z</time>
      </trkpt>
      <trkpt lat="48.50916" lon="-3.45675">
        <ele>164.98</ele>
        <time>2018-05-03T12:39:44.000Z</time>
      </trkpt>
      <trkpt lat="48.50923" lon="-3.45682">
        <ele>163.9</ele>
        <time>2018-05-03T12:39:54.000Z</time>
      </trkpt>
      <trkpt lat="48.50933" lon="-3.45685">
        <ele>166</ele>
        <time>2018-05-03T12:40:04.000Z</time>
      </trkpt>
      <trkpt lat="48.50945" lon="-3.4569">
        <ele>161.92</ele>
        <time>2018-05-03T12:40:14.000Z</time>
      </trkpt>
      <trkpt lat="48.50953" lon="-3.45697">
        <ele>163.38</ele>
        <time>2018-05-03T12:40:24.000Z</time>
      </trkpt>
      <trkpt lat="48.5096" lon="-3.45702">
        <ele>162.76</ele>
        <time>2018-05-03T12:40:34.000Z</time>
      </trkpt>
      <trkpt lat="48.50966" lon="-3.45709">
        <ele>159.49</ele>
        <time>2018-05-03T12:40:44.000Z</time>
      </trkpt>
      <trkpt lat="48.50972" lon="-3.4571">
        <ele>159.62</ele>
        <time>2018-05-03T12:40:54.000Z</time>
      </trkpt>
      <trkpt lat="48.50988" lon="-3.45716">
        <ele>165.91</ele>
        <time>2018-05-03T12:41:04.000Z</time>
      </trkpt>
      <trkpt lat="48.50999" lon="-3.45721">
        <ele>167.18</ele>
        <time>2018-05-03T12:41:14.000Z</time>
      </trkpt>
      <trkpt lat="48.51008" lon="-3.45722">
        <ele>170.98</ele>
        <time>2018-05-03T12:41:24.000Z</time>
      </trkpt>
      <trkpt lat="48.51016" lon="-3.45716">
        <ele>170.43</ele>
        <time>2018-05-03T12:41:34.000Z</time>
      </trkpt>
      <trkpt lat="48.51027" lon="-3.45707">
        <ele>169.26</ele>
        <time>2018-05-03T12:41:44.000Z</time>
      </trkpt>
      <trkpt lat="48.51038" lon="-3.45701">
        <ele>172.8</ele>
        <time>2018-05-03T12:41:54.000Z</time>
      </trkpt>
      <trkpt lat="48.51041" lon="-3.45698">
        <ele>170.51</ele>
        <time>2018-05-03T12:42:04.000Z</time>
      </trkpt>
      <trkpt lat="48.51052" lon="-3.45689">
        <ele>169.24</ele>
        <time>2018-05-03T12:42:14.000Z</time>
      </trkpt>
      <trkpt lat="48.5106" lon="-3.45683">
        <ele>165.4</ele>
        <time>2018-05-03T12:42:24.000Z</time>
      </trkpt>
      <trkpt lat="48.5107" lon="-3.45677">
        <ele>161.64</ele>
        <time>2018-05-03T12:42:34.000Z</time>
      </trkpt>
      <trkpt lat="48.51082" lon="-3.45669">
        <ele>159.07</ele>
        <time>2018-05-03T12:42:44.000Z</time>
      </trkpt>
      <trkpt lat="48.51088" lon="-3.45655">
        <ele>162.2</ele>
        <time>2018-05-03T12:42:54.000Z</time>
      </trkpt>
      <trkpt lat="48.51093" lon="-3.45647">
        <ele>162.31</ele>
        <time>2018-05-03T12:43:04.000Z</time>
      </trkpt>
      <trkpt lat="48.51103" lon="-3.45636">
        <ele>158.38</ele>
        <time>2018-05-03T12:43:14.000Z</time>
      </trkpt>
      <trkpt lat="48.51113" lon="-3.45624">
        <ele>156.32</ele>
        <time>2018-05-03T12:43:24.000Z</time>
      </trkpt>
      <trkpt lat="48.51123" lon="-3.45617">
        <ele>157.75</ele>
        <time>2018-05-03T12:43:34.000Z</time>
      </trkpt>
      <trkpt lat="48.51127" lon="-3.45614">
        <ele>154.02</ele>
        <time>2018-05-03T12:43:44.000Z</time>
      </trkpt>
      <trkpt lat="48.51135" lon="-3.45617">
        <ele>154.19</ele>
        <time>2018-05-03T12:43:54.000Z</time>
      </trkpt>
      <trkpt lat="48.51145" lon="-3.45617">
        <ele>152.23</ele>
        <time>2018-05-03T12:44:04.000Z</time>
      </trkpt>
      <trkpt lat="48.51156" lon="-3.45612">
        <ele>150.52</ele>
        <time>2018-05-03T12:44:14.000Z</time>
      </trkpt>
      <trkpt lat="48.51164" lon="-3.4561">
        <ele>150.25</ele>
        <time>2018-05-03T12:44:24.000Z</time>
      </trkpt>
      <trkpt lat="48.51175" lon="-3.45608">
        <ele>147.32</ele>
        <time>2018-05-03T12:44:34.000Z</time>
      </trkpt>
      <trkpt lat="48.51181" lon="-3.45603">
        <ele>146.54</ele>
        <time>2018-05-03T12:44:44.000Z</time>
      </trkpt>
      <trkpt lat="48.51199" lon="-3.45596">
        <ele>145.27</ele>
        <time>2018-05-03T12:44:54.000Z</time>
      </trkpt>
      <trkpt lat="48.51211" lon="-3.45593">
        <ele>144.21</ele>
        <time>2018-05-03T12:45:04.000Z</time>
      </trkpt>
      <trkpt lat="48.51218" lon="-3.4559">
        <ele>142.25</ele>
        <time>2018-05-03T12:45:14.000Z</time>
      </trkpt>
      <trkpt lat="48.51224" lon="-3.45585">
        <ele>137.18</ele>
        <time>2018-05-03T12:45:24.000Z</time>
      </trkpt>
      <trkpt lat="48.51231" lon="-3.45584">
        <ele>139.17</ele>
        <time>2018-05-03T12:45:34.000Z</time>
      </trkpt>
      <trkpt lat="48.5124" lon="-3.45589">
        <ele>136.33</ele>
        <time>2018-05-03T12:45:44.000Z</time>
      </trkpt>
      <trkpt lat="48.51247" lon="-3.45597">
        <ele>134.19</ele>
        <time>2018-05-03T12:45:54.000Z</time>
      </trkpt>
      <trkpt lat="48.51255" lon="-3.45597">
        <ele>131.58</ele>
        <time>2018-05-03T12:46:04.000Z</time>
      </trkpt>
      <trkpt lat="48.51266" lon="-3.456">
        <ele>137.57</ele>
        <time>2018-05-03T12:46:14.000Z</time>
      </trkpt>
      <trkpt lat="48.51263" lon="-3.45609">
        <ele>130.56</ele>
        <time>2018-05-03T12:46:24.000Z</time>
      </trkpt>
      <trkpt lat="48.51263" lon="-3.45627">
        <ele>130.09</ele>
        <time>2018-05-03T12:46:34.000Z</time>
      </trkpt>
      <trkpt lat="48.51262" lon="-3.4563">
        <ele>125.95</ele>
        <time>2018-05-03T12:46:44.000Z</time>
      </trkpt>
      <trkpt lat="48.51259" lon="-3.45643">
        <ele>127.15</ele>
        <time>2018-05-03T12:46:54.000Z</time>
      </trkpt>
      <trkpt lat="48.51258" lon="-3.45648">
        <ele>123.51</ele>
        <time>2018-05-03T12:47:04.000Z</time>
      </trkpt>
      <trkpt lat="48.51259" lon="-3.45653">
        <ele>125.97</ele>
        <time>2018-05-03T12:47:14.000Z</time>
      </trkpt>
      <trkpt lat="48.51259" lon="-3.45654">
        <ele>128.25</ele>
        <time>2018-05-03T12:47:25.000Z</time>
      </trkpt>
      <trkpt lat="48.51259" lon="-3.45656">
        <ele>129</ele>
        <time>2018-05-03T12:47:45.000Z</time>
      </trkpt>
      <trkpt lat="48.51248" lon="-3.45669">
        <ele>128.17</ele>
        <time>2018-05-03T12:47:55.000Z</time>
      </trkpt>
      <trkpt lat="48.51249" lon="-3.45668">
        <ele>127.25</ele>
        <time>2018-05-03T12:48:05.000Z</time>
      </trkpt>
      <trkpt lat="48.51249" lon="-3.4567">
        <ele>129.18</ele>
        <time>2018-05-03T12:48:15.000Z</time>
      </trkpt>
      <trkpt lat="48.51249" lon="-3.45668">
        <ele>127.5</ele>
        <time>2018-05-03T12:48:44.000Z</time>
      </trkpt>
      <trkpt lat="48.5125" lon="-3.45661">
        <ele>126.25</ele>
        <time>2018-05-03T12:48:54.000Z</time>
      </trkpt>
      <trkpt lat="48.51252" lon="-3.45649">
        <ele>123.52</ele>
        <time>2018-05-03T12:49:04.000Z</time>
      </trkpt>
      <trkpt lat="48.51254" lon="-3.45638">
        <ele>123.49</ele>
        <time>2018-05-03T12:49:14.000Z</time>
      </trkpt>
      <trkpt lat="48.51255" lon="-3.45637">
        <ele>124.2</ele>
        <time>2018-05-03T12:49:24.000Z</time>
      </trkpt>
      <trkpt lat="48.51256" lon="-3.4563">
        <ele>125.25</ele>
        <time>2018-05-03T12:49:34.000Z</time>
      </trkpt>
      <trkpt lat="48.51259" lon="-3.45634">
        <ele>124.31</ele>
        <time>2018-05-03T12:49:44.000Z</time>
      </trkpt>
      <trkpt lat="48.51259" lon="-3.4563">
        <ele>122.5</ele>
        <time>2018-05-03T12:49:56.000Z</time>
      </trkpt>
      <trkpt lat="48.5126" lon="-3.45605">
        <ele>122.43</ele>
        <time>2018-05-03T12:50:06.000Z</time>
      </trkpt>
      <trkpt lat="48.51254" lon="-3.45598">
        <ele>124.24</ele>
        <time>2018-05-03T12:50:16.000Z</time>
      </trkpt>
      <trkpt lat="48.51246" lon="-3.45595">
        <ele>121.31</ele>
        <time>2018-05-03T12:50:26.000Z</time>
      </trkpt>
      <trkpt lat="48.51239" lon="-3.4559">
        <ele>126.98</ele>
        <time>2018-05-03T12:50:36.000Z</time>
      </trkpt>
      <trkpt lat="48.5124" lon="-3.45583">
        <ele>132.04</ele>
        <time>2018-05-03T12:50:46.000Z</time>
      </trkpt>
      <trkpt lat="48.51241" lon="-3.4558">
        <ele>132</ele>
        <time>2018-05-03T12:50:56.000Z</time>
      </trkpt>
      <trkpt lat="48.51245" lon="-3.45573">
        <ele>131.31</ele>
        <time>2018-05-03T12:51:06.000Z</time>
      </trkpt>
      <trkpt lat="48.51247" lon="-3.45559">
        <ele>130.2</ele>
        <time>2018-05-03T12:51:16.000Z</time>
      </trkpt>
      <trkpt lat="48.51249" lon="-3.45546">
        <ele>131.74</ele>
        <time>2018-05-03T12:51:26.000Z</time>
      </trkpt>
      <trkpt lat="48.51252" lon="-3.45534">
        <ele>132.5</ele>
        <time>2018-05-03T12:51:36.000Z</time>
      </trkpt>
      <trkpt lat="48.51254" lon="-3.45521">
        <ele>130.5</ele>
        <time>2018-05-03T12:51:46.000Z</time>
      </trkpt>
      <trkpt lat="48.51263" lon="-3.45511">
        <ele>135.98</ele>
        <time>2018-05-03T12:51:56.000Z</time>
      </trkpt>
      <trkpt lat="48.51271" lon="-3.45503">
        <ele>130.81</ele>
        <time>2018-05-03T12:52:06.000Z</time>
      </trkpt>
      <trkpt lat="48.51282" lon="-3.45495">
        <ele>130.18</ele>
        <time>2018-05-03T12:52:16.000Z</time>
      </trkpt>
      <trkpt lat="48.51286" lon="-3.45484">
        <ele>131.31</ele>
        <time>2018-05-03T12:52:26.000Z</time>
      </trkpt>
      <trkpt lat="48.51297" lon="-3.45472">
        <ele>130.99</ele>
        <time>2018-05-03T12:52:36.000Z</time>
      </trkpt>
      <trkpt lat="48.51301" lon="-3.45459">
        <ele>132.06</ele>
        <time>2018-05-03T12:52:46.000Z</time>
      </trkpt>
      <trkpt lat="48.51309" lon="-3.45449">
        <ele>127.31</ele>
        <time>2018-05-03T12:52:56.000Z</time>
      </trkpt>
      <trkpt lat="48.51317" lon="-3.45437">
        <ele>129.19</ele>
        <time>2018-05-03T12:53:06.000Z</time>
      </trkpt>
      <trkpt lat="48.51324" lon="-3.4542">
        <ele>130.8</ele>
        <time>2018-05-03T12:53:16.000Z</time>
      </trkpt>
      <trkpt lat="48.51332" lon="-3.45413">
        <ele>126.33</ele>
        <time>2018-05-03T12:53:26.000Z</time>
      </trkpt>
      <trkpt lat="48.51339" lon="-3.454">
        <ele>123.94</ele>
        <time>2018-05-03T12:53:36.000Z</time>
      </trkpt>
      <trkpt lat="48.51345" lon="-3.45383">
        <ele>125.25</ele>
        <time>2018-05-03T12:53:46.000Z</time>
      </trkpt>
      <trkpt lat="48.51349" lon="-3.45369">
        <ele>126.98</ele>
        <time>2018-05-03T12:53:56.000Z</time>
      </trkpt>
      <trkpt lat="48.51352" lon="-3.45356">
        <ele>126.5</ele>
        <time>2018-05-03T12:54:06.000Z</time>
      </trkpt>
      <trkpt lat="48.51356" lon="-3.45342">
        <ele>128.95</ele>
        <time>2018-05-03T12:54:16.000Z</time>
      </trkpt>
      <trkpt lat="48.5136" lon="-3.45324">
        <ele>132.19</ele>
        <time>2018-05-03T12:54:26.000Z</time>
      </trkpt>
      <trkpt lat="48.51362" lon="-3.45305">
        <ele>132.3</ele>
        <time>2018-05-03T12:54:36.000Z</time>
      </trkpt>
      <trkpt lat="48.51368" lon="-3.45288">
        <ele>133.23</ele>
        <time>2018-05-03T12:54:46.000Z</time>
      </trkpt>
      <trkpt lat="48.5137" lon="-3.45272">
        <ele>130.25</ele>
        <time>2018-05-03T12:54:56.000Z</time>
      </trkpt>
      <trkpt lat="48.5137" lon="-3.45257">
        <ele>130.24</ele>
        <time>2018-05-03T12:55:06.000Z</time>
      </trkpt>
      <trkpt lat="48.51372" lon="-3.45242">
        <ele>126.27</ele>
        <time>2018-05-03T12:55:16.000Z</time>
      </trkpt>
      <trkpt lat="48.51376" lon="-3.45229">
        <ele>125.2</ele>
        <time>2018-05-03T12:55:26.000Z</time>
      </trkpt>
      <trkpt lat="48.51379" lon="-3.45214">
        <ele>125.03</ele>
        <time>2018-05-03T12:55:36.000Z</time>
      </trkpt>
      <trkpt lat="48.51382" lon="-3.45199">
        <ele>128.94</ele>
        <time>2018-05-03T12:55:46.000Z</time>
      </trkpt>
      <trkpt lat="48.51385" lon="-3.45184">
        <ele>129.48</ele>
        <time>2018-05-03T12:55:56.000Z</time>
      </trkpt>
      <trkpt lat="48.51391" lon="-3.45168">
        <ele>130.23</ele>
        <time>2018-05-03T12:56:06.000Z</time>
      </trkpt>
      <trkpt lat="48.514" lon="-3.4516">
        <ele>127.07</ele>
        <time>2018-05-03T12:56:16.000Z</time>
      </trkpt>
      <trkpt lat="48.51407" lon="-3.45148">
        <ele>125.5</ele>
        <time>2018-05-03T12:56:26.000Z</time>
      </trkpt>
      <trkpt lat="48.51412" lon="-3.45134">
        <ele>125.56</ele>
        <time>2018-05-03T12:56:36.000Z</time>
      </trkpt>
      <trkpt lat="48.51424" lon="-3.45123">
        <ele>126.11</ele>
        <time>2018-05-03T12:56:46.000Z</time>
      </trkpt>
      <trkpt lat="48.5143" lon="-3.45121">
        <ele>123.29</ele>
        <time>2018-05-03T12:56:56.000Z</time>
      </trkpt>
      <trkpt lat="48.51433" lon="-3.45104">
        <ele>126.2</ele>
        <time>2018-05-03T12:57:06.000Z</time>
      </trkpt>
      <trkpt lat="48.5144" lon="-3.45083">
        <ele>127.24</ele>
        <time>2018-05-03T12:57:16.000Z</time>
      </trkpt>
      <trkpt lat="48.51441" lon="-3.45074">
        <ele>125.29</ele>
        <time>2018-05-03T12:57:26.000Z</time>
      </trkpt>
      <trkpt lat="48.51445" lon="-3.45053">
        <ele>125.25</ele>
        <time>2018-05-03T12:57:36.000Z</time>
      </trkpt>
      <trkpt lat="48.51446" lon="-3.45041">
        <ele>126.69</ele>
        <time>2018-05-03T12:57:46.000Z</time>
      </trkpt>
      <trkpt lat="48.51452" lon="-3.45036">
        <ele>124.26</ele>
        <time>2018-05-03T12:57:56.000Z</time>
      </trkpt>
      <trkpt lat="48.51454" lon="-3.45034">
        <ele>127</ele>
        <time>2018-05-03T12:58:06.000Z</time>
      </trkpt>
      <trkpt lat="48.51455" lon="-3.4503">
        <ele>127.25</ele>
        <time>2018-05-03T12:58:36.000Z</time>
      </trkpt>
      <trkpt lat="48.51453" lon="-3.45013">
        <ele>126.25</ele>
        <time>2018-05-03T12:58:46.000Z</time>
      </trkpt>
      <trkpt lat="48.51458" lon="-3.44996">
        <ele>125.48</ele>
        <time>2018-05-03T12:58:56.000Z</time>
      </trkpt>
      <trkpt lat="48.5146" lon="-3.44982">
        <ele>128.02</ele>
        <time>2018-05-03T12:59:06.000Z</time>
      </trkpt>
      <trkpt lat="48.51468" lon="-3.44971">
        <ele>127.5</ele>
        <time>2018-05-03T12:59:16.000Z</time>
      </trkpt>
      <trkpt lat="48.51473" lon="-3.44957">
        <ele>128.44</ele>
        <time>2018-05-03T12:59:26.000Z</time>
      </trkpt>
      <trkpt lat="48.51476" lon="-3.44953">
        <ele>128.25</ele>
        <time>2018-05-03T12:59:36.000Z</time>
      </trkpt>
      <trkpt lat="48.51478" lon="-3.44944">
        <ele>126.61</ele>
        <time>2018-05-03T12:59:46.000Z</time>
      </trkpt>
      <trkpt lat="48.51478" lon="-3.44923">
        <ele>127.24</ele>
        <time>2018-05-03T12:59:56.000Z</time>
      </trkpt>
      <trkpt lat="48.51483" lon="-3.44903">
        <ele>126.94</ele>
        <time>2018-05-03T13:00:06.000Z</time>
      </trkpt>
      <trkpt lat="48.51486" lon="-3.44887">
        <ele>126.06</ele>
        <time>2018-05-03T13:00:16.000Z</time>
      </trkpt>
      <trkpt lat="48.51495" lon="-3.4487">
        <ele>127.52</ele>
        <time>2018-05-03T13:00:26.000Z</time>
      </trkpt>
      <trkpt lat="48.51505" lon="-3.44858">
        <ele>127.74</ele>
        <time>2018-05-03T13:00:36.000Z</time>
      </trkpt>
      <trkpt lat="48.51514" lon="-3.44843">
        <ele>132.94</ele>
        <time>2018-05-03T13:00:46.000Z</time>
      </trkpt>
      <trkpt lat="48.51517" lon="-3.44829">
        <ele>131.57</ele>
        <time>2018-05-03T13:00:56.000Z</time>
      </trkpt>
      <trkpt lat="48.51522" lon="-3.44818">
        <ele>130.52</ele>
        <time>2018-05-03T13:01:06.000Z</time>
      </trkpt>
      <trkpt lat="48.51522" lon="-3.44799">
        <ele>128.3</ele>
        <time>2018-05-03T13:01:16.000Z</time>
      </trkpt>
      <trkpt lat="48.51522" lon="-3.44774">
        <ele>130.06</ele>
        <time>2018-05-03T13:01:26.000Z</time>
      </trkpt>
      <trkpt lat="48.51526" lon="-3.44762">
        <ele>132.46</ele>
        <time>2018-05-03T13:01:36.000Z</time>
      </trkpt>
      <trkpt lat="48.51532" lon="-3.44744">
        <ele>135.44</ele>
        <time>2018-05-03T13:01:46.000Z</time>
      </trkpt>
      <trkpt lat="48.5153" lon="-3.44728">
        <ele>133.25</ele>
        <time>2018-05-03T13:01:56.000Z</time>
      </trkpt>
      <trkpt lat="48.51529" lon="-3.44715">
        <ele>132.08</ele>
        <time>2018-05-03T13:02:06.000Z</time>
      </trkpt>
      <trkpt lat="48.51524" lon="-3.44701">
        <ele>128.2</ele>
        <time>2018-05-03T13:02:16.000Z</time>
      </trkpt>
      <trkpt lat="48.51521" lon="-3.44683">
        <ele>128.08</ele>
        <time>2018-05-03T13:02:26.000Z</time>
      </trkpt>
      <trkpt lat="48.51526" lon="-3.44667">
        <ele>126.08</ele>
        <time>2018-05-03T13:02:36.000Z</time>
      </trkpt>
      <trkpt lat="48.51523" lon="-3.44653">
        <ele>124.55</ele>
        <time>2018-05-03T13:02:46.000Z</time>
      </trkpt>
      <trkpt lat="48.51523" lon="-3.44638">
        <ele>123.44</ele>
        <time>2018-05-03T13:02:56.000Z</time>
      </trkpt>
      <trkpt lat="48.51519" lon="-3.44625">
        <ele>122.2</ele>
        <time>2018-05-03T13:03:06.000Z</time>
      </trkpt>
      <trkpt lat="48.51513" lon="-3.44614">
        <ele>122.27</ele>
        <time>2018-05-03T13:03:16.000Z</time>
      </trkpt>
      <trkpt lat="48.51512" lon="-3.44602">
        <ele>125.22</ele>
        <time>2018-05-03T13:03:26.000Z</time>
      </trkpt>
      <trkpt lat="48.51507" lon="-3.44588">
        <ele>131.23</ele>
        <time>2018-05-03T13:03:36.000Z</time>
      </trkpt>
      <trkpt lat="48.51509" lon="-3.44581">
        <ele>134.43</ele>
        <time>2018-05-03T13:03:46.000Z</time>
      </trkpt>
      <trkpt lat="48.51506" lon="-3.44576">
        <ele>132.25</ele>
        <time>2018-05-03T13:03:56.000Z</time>
      </trkpt>
      <trkpt lat="48.51506" lon="-3.44575">
        <ele>132.25</ele>
        <time>2018-05-03T13:04:07.000Z</time>
      </trkpt>
      <trkpt lat="48.515" lon="-3.4456">
        <ele>133.92</ele>
        <time>2018-05-03T13:04:17.000Z</time>
      </trkpt>
      <trkpt lat="48.515" lon="-3.44546">
        <ele>140.13</ele>
        <time>2018-05-03T13:04:27.000Z</time>
      </trkpt>
      <trkpt lat="48.51498" lon="-3.44538">
        <ele>142.19</ele>
        <time>2018-05-03T13:04:37.000Z</time>
      </trkpt>
      <trkpt lat="48.51499" lon="-3.44535">
        <ele>145</ele>
        <time>2018-05-03T13:04:47.000Z</time>
      </trkpt>
      <trkpt lat="48.51504" lon="-3.44539">
        <ele>144.25</ele>
        <time>2018-05-03T13:04:57.000Z</time>
      </trkpt>
      <trkpt lat="48.51512" lon="-3.44534">
        <ele>149.24</ele>
        <time>2018-05-03T13:05:07.000Z</time>
      </trkpt>
      <trkpt lat="48.51509" lon="-3.44531">
        <ele>158.03</ele>
        <time>2018-05-03T13:05:17.000Z</time>
      </trkpt>
      <trkpt lat="48.51498" lon="-3.44514">
        <ele>152.38</ele>
        <time>2018-05-03T13:05:27.000Z</time>
      </trkpt>
      <trkpt lat="48.51498" lon="-3.44505">
        <ele>151.32</ele>
        <time>2018-05-03T13:05:37.000Z</time>
      </trkpt>
      <trkpt lat="48.51507" lon="-3.44491">
        <ele>149.5</ele>
        <time>2018-05-03T13:05:47.000Z</time>
      </trkpt>
      <trkpt lat="48.51506" lon="-3.4447">
        <ele>153.92</ele>
        <time>2018-05-03T13:05:57.000Z</time>
      </trkpt>
      <trkpt lat="48.51513" lon="-3.44459">
        <ele>153.31</ele>
        <time>2018-05-03T13:06:07.000Z</time>
      </trkpt>
      <trkpt lat="48.51517" lon="-3.44445">
        <ele>151.99</ele>
        <time>2018-05-03T13:06:17.000Z</time>
      </trkpt>
      <trkpt lat="48.51517" lon="-3.44432">
        <ele>153.2</ele>
        <time>2018-05-03T13:06:27.000Z</time>
      </trkpt>
      <trkpt lat="48.51515" lon="-3.44421">
        <ele>154.19</ele>
        <time>2018-05-03T13:06:37.000Z</time>
      </trkpt>
      <trkpt lat="48.51509" lon="-3.44405">
        <ele>152.51</ele>
        <time>2018-05-03T13:06:47.000Z</time>
      </trkpt>
      <trkpt lat="48.51503" lon="-3.44393">
        <ele>152.52</ele>
        <time>2018-05-03T13:06:57.000Z</time>
      </trkpt>
      <trkpt lat="48.5151" lon="-3.44395">
        <ele>154.01</ele>
        <time>2018-05-03T13:07:07.000Z</time>
      </trkpt>
      <trkpt lat="48.5151" lon="-3.44392">
        <ele>155.26</ele>
        <time>2018-05-03T13:07:17.000Z</time>
      </trkpt>
      <trkpt lat="48.51509" lon="-3.44387">
        <ele>154.51</ele>
        <time>2018-05-03T13:07:27.000Z</time>
      </trkpt>
      <trkpt lat="48.51508" lon="-3.44355">
        <ele>155.49</ele>
        <time>2018-05-03T13:07:37.000Z</time>
      </trkpt>
      <trkpt lat="48.51507" lon="-3.44334">
        <ele>151.51</ele>
        <time>2018-05-03T13:07:47.000Z</time>
      </trkpt>
      <trkpt lat="48.51506" lon="-3.44315">
        <ele>153.51</ele>
        <time>2018-05-03T13:07:57.000Z</time>
      </trkpt>
      <trkpt lat="48.51504" lon="-3.44298">
        <ele>149.29</ele>
        <time>2018-05-03T13:08:07.000Z</time>
      </trkpt>
      <trkpt lat="48.51505" lon="-3.4428">
        <ele>155.19</ele>
        <time>2018-05-03T13:08:17.000Z</time>
      </trkpt>
      <trkpt lat="48.51508" lon="-3.44268">
        <ele>154.44</ele>
        <time>2018-05-03T13:08:27.000Z</time>
      </trkpt>
      <trkpt lat="48.51506" lon="-3.44251">
        <ele>156.26</ele>
        <time>2018-05-03T13:08:37.000Z</time>
      </trkpt>
      <trkpt lat="48.51508" lon="-3.44238">
        <ele>154.51</ele>
        <time>2018-05-03T13:08:47.000Z</time>
      </trkpt>
      <trkpt lat="48.51511" lon="-3.44225">
        <ele>154.76</ele>
        <time>2018-05-03T13:08:57.000Z</time>
      </trkpt>
      <trkpt lat="48.51512" lon="-3.44217">
        <ele>152.27</ele>
        <time>2018-05-03T13:09:07.000Z</time>
      </trkpt>
      <trkpt lat="48.51506" lon="-3.44201">
        <ele>152.51</ele>
        <time>2018-05-03T13:09:17.000Z</time>
      </trkpt>
      <trkpt lat="48.51502" lon="-3.44191">
        <ele>149.01</ele>
        <time>2018-05-03T13:09:27.000Z</time>
      </trkpt>
      <trkpt lat="48.51505" lon="-3.4418">
        <ele>151.5</ele>
        <time>2018-05-03T13:09:37.000Z</time>
      </trkpt>
      <trkpt lat="48.51501" lon="-3.44167">
        <ele>153</ele>
        <time>2018-05-03T13:09:47.000Z</time>
      </trkpt>
      <trkpt lat="48.51498" lon="-3.44153">
        <ele>153.26</ele>
        <time>2018-05-03T13:09:57.000Z</time>
      </trkpt>
      <trkpt lat="48.51499" lon="-3.44154">
        <ele>151.43</ele>
        <time>2018-05-03T13:10:07.000Z</time>
      </trkpt>
      <trkpt lat="48.51497" lon="-3.4415">
        <ele>153.01</ele>
        <time>2018-05-03T13:10:24.000Z</time>
      </trkpt>
      <trkpt lat="48.51488" lon="-3.44127">
        <ele>155.19</ele>
        <time>2018-05-03T13:10:34.000Z</time>
      </trkpt>
      <trkpt lat="48.51491" lon="-3.44113">
        <ele>154.21</ele>
        <time>2018-05-03T13:10:44.000Z</time>
      </trkpt>
      <trkpt lat="48.51489" lon="-3.44105">
        <ele>157.25</ele>
        <time>2018-05-03T13:10:54.000Z</time>
      </trkpt>
      <trkpt lat="48.51488" lon="-3.44103">
        <ele>158.26</ele>
        <time>2018-05-03T13:11:04.000Z</time>
      </trkpt>
      <trkpt lat="48.51483" lon="-3.4408">
        <ele>161.49</ele>
        <time>2018-05-03T13:11:14.000Z</time>
      </trkpt>
      <trkpt lat="48.51488" lon="-3.44074">
        <ele>159.81</ele>
        <time>2018-05-03T13:11:24.000Z</time>
      </trkpt>
      <trkpt lat="48.51489" lon="-3.44063">
        <ele>160.96</ele>
        <time>2018-05-03T13:11:34.000Z</time>
      </trkpt>
      <trkpt lat="48.5149" lon="-3.44053">
        <ele>161.94</ele>
        <time>2018-05-03T13:11:44.000Z</time>
      </trkpt>
      <trkpt lat="48.5149" lon="-3.44049">
        <ele>164.26</ele>
        <time>2018-05-03T13:11:54.000Z</time>
      </trkpt>
      <trkpt lat="48.51489" lon="-3.44044">
        <ele>163.51</ele>
        <time>2018-05-03T13:12:04.000Z</time>
      </trkpt>
      <trkpt lat="48.51488" lon="-3.44018">
        <ele>162.45</ele>
        <time>2018-05-03T13:12:14.000Z</time>
      </trkpt>
      <trkpt lat="48.51487" lon="-3.44007">
        <ele>162.25</ele>
        <time>2018-05-03T13:12:24.000Z</time>
      </trkpt>
      <trkpt lat="48.5149" lon="-3.44003">
        <ele>163.07</ele>
        <time>2018-05-03T13:12:34.000Z</time>
      </trkpt>
      <trkpt lat="48.51494" lon="-3.43996">
        <ele>164.19</ele>
        <time>2018-05-03T13:12:44.000Z</time>
      </trkpt>
      <trkpt lat="48.51491" lon="-3.43995">
        <ele>162.26</ele>
        <time>2018-05-03T13:12:54.000Z</time>
      </trkpt>
      <trkpt lat="48.51492" lon="-3.43989">
        <ele>162.32</ele>
        <time>2018-05-03T13:13:04.000Z</time>
      </trkpt>
      <trkpt lat="48.51493" lon="-3.43986">
        <ele>164.01</ele>
        <time>2018-05-03T13:13:14.000Z</time>
      </trkpt>
      <trkpt lat="48.51491" lon="-3.43991">
        <ele>164.95</ele>
        <time>2018-05-03T13:13:24.000Z</time>
      </trkpt>
      <trkpt lat="48.5149" lon="-3.43991">
        <ele>164.26</ele>
        <time>2018-05-03T13:13:57.000Z</time>
      </trkpt>
      <trkpt lat="48.51491" lon="-3.43989">
        <ele>164.26</ele>
        <time>2018-05-03T13:14:32.000Z</time>
      </trkpt>
      <trkpt lat="48.5149" lon="-3.43991">
        <ele>163.26</ele>
        <time>2018-05-03T13:14:42.000Z</time>
      </trkpt>
      <trkpt lat="48.51488" lon="-3.4399">
        <ele>163.26</ele>
        <time>2018-05-03T13:14:52.000Z</time>
      </trkpt>
      <trkpt lat="48.51486" lon="-3.43988">
        <ele>161.76</ele>
        <time>2018-05-03T13:15:06.000Z</time>
      </trkpt>
      <trkpt lat="48.5148" lon="-3.43976">
        <ele>166.71</ele>
        <time>2018-05-03T13:15:16.000Z</time>
      </trkpt>
      <trkpt lat="48.51476" lon="-3.43961">
        <ele>164.16</ele>
        <time>2018-05-03T13:15:26.000Z</time>
      </trkpt>
      <trkpt lat="48.51472" lon="-3.43951">
        <ele>167.2</ele>
        <time>2018-05-03T13:15:36.000Z</time>
      </trkpt>
      <trkpt lat="48.51471" lon="-3.43935">
        <ele>170.13</ele>
        <time>2018-05-03T13:15:46.000Z</time>
      </trkpt>
      <trkpt lat="48.51463" lon="-3.43917">
        <ele>170.43</ele>
        <time>2018-05-03T13:15:56.000Z</time>
      </trkpt>
      <trkpt lat="48.5146" lon="-3.43912">
        <ele>170.06</ele>
        <time>2018-05-03T13:16:06.000Z</time>
      </trkpt>
      <trkpt lat="48.51452" lon="-3.43901">
        <ele>173.68</ele>
        <time>2018-05-03T13:16:16.000Z</time>
      </trkpt>
      <trkpt lat="48.5145" lon="-3.4389">
        <ele>171.51</ele>
        <time>2018-05-03T13:16:26.000Z</time>
      </trkpt>
      <trkpt lat="48.51452" lon="-3.4388">
        <ele>174.02</ele>
        <time>2018-05-03T13:16:36.000Z</time>
      </trkpt>
      <trkpt lat="48.51449" lon="-3.43877">
        <ele>174.26</ele>
        <time>2018-05-03T13:16:46.000Z</time>
      </trkpt>
      <trkpt lat="48.51442" lon="-3.4386">
        <ele>171.51</ele>
        <time>2018-05-03T13:16:56.000Z</time>
      </trkpt>
      <trkpt lat="48.51439" lon="-3.43834">
        <ele>172.99</ele>
        <time>2018-05-03T13:17:06.000Z</time>
      </trkpt>
      <trkpt lat="48.51435" lon="-3.43815">
        <ele>174.26</ele>
        <time>2018-05-03T13:17:16.000Z</time>
      </trkpt>
      <trkpt lat="48.51431" lon="-3.438">
        <ele>176.27</ele>
        <time>2018-05-03T13:17:26.000Z</time>
      </trkpt>
      <trkpt lat="48.51426" lon="-3.43788">
        <ele>176.94</ele>
        <time>2018-05-03T13:17:36.000Z</time>
      </trkpt>
      <trkpt lat="48.51426" lon="-3.43776">
        <ele>180.24</ele>
        <time>2018-05-03T13:17:46.000Z</time>
      </trkpt>
      <trkpt lat="48.51426" lon="-3.43765">
        <ele>178.22</ele>
        <time>2018-05-03T13:17:56.000Z</time>
      </trkpt>
      <trkpt lat="48.51426" lon="-3.43751">
        <ele>181.2</ele>
        <time>2018-05-03T13:18:06.000Z</time>
      </trkpt>
      <trkpt lat="48.51426" lon="-3.43739">
        <ele>181.02</ele>
        <time>2018-05-03T13:18:16.000Z</time>
      </trkpt>
      <trkpt lat="48.51415" lon="-3.4372">
        <ele>177.27</ele>
        <time>2018-05-03T13:18:26.000Z</time>
      </trkpt>
      <trkpt lat="48.51413" lon="-3.43705">
        <ele>176.51</ele>
        <time>2018-05-03T13:18:36.000Z</time>
      </trkpt>
      <trkpt lat="48.51412" lon="-3.43691">
        <ele>175.26</ele>
        <time>2018-05-03T13:18:46.000Z</time>
      </trkpt>
      <trkpt lat="48.51411" lon="-3.43679">
        <ele>178.56</ele>
        <time>2018-05-03T13:18:56.000Z</time>
      </trkpt>
      <trkpt lat="48.51411" lon="-3.43662">
        <ele>181.9</ele>
        <time>2018-05-03T13:19:06.000Z</time>
      </trkpt>
      <trkpt lat="48.51408" lon="-3.43649">
        <ele>177.55</ele>
        <time>2018-05-03T13:19:16.000Z</time>
      </trkpt>
      <trkpt lat="48.51407" lon="-3.43636">
        <ele>173.32</ele>
        <time>2018-05-03T13:19:26.000Z</time>
      </trkpt>
      <trkpt lat="48.5141" lon="-3.43618">
        <ele>176.26</ele>
        <time>2018-05-03T13:19:36.000Z</time>
      </trkpt>
      <trkpt lat="48.51408" lon="-3.43604">
        <ele>174.34</ele>
        <time>2018-05-03T13:19:46.000Z</time>
      </trkpt>
      <trkpt lat="48.5141" lon="-3.43591">
        <ele>176.2</ele>
        <time>2018-05-03T13:19:56.000Z</time>
      </trkpt>
      <trkpt lat="48.5141" lon="-3.4357">
        <ele>179.26</ele>
        <time>2018-05-03T13:20:06.000Z</time>
      </trkpt>
      <trkpt lat="48.51411" lon="-3.43556">
        <ele>180.31</ele>
        <time>2018-05-03T13:20:16.000Z</time>
      </trkpt>
      <trkpt lat="48.5141" lon="-3.4354">
        <ele>178.26</ele>
        <time>2018-05-03T13:20:26.000Z</time>
      </trkpt>
      <trkpt lat="48.51411" lon="-3.43525">
        <ele>179.57</ele>
        <time>2018-05-03T13:20:36.000Z</time>
      </trkpt>
      <trkpt lat="48.51412" lon="-3.4351">
        <ele>180.4</ele>
        <time>2018-05-03T13:20:46.000Z</time>
      </trkpt>
      <trkpt lat="48.51418" lon="-3.43497">
        <ele>180.24</ele>
        <time>2018-05-03T13:20:56.000Z</time>
      </trkpt>
      <trkpt lat="48.51421" lon="-3.43479">
        <ele>182.51</ele>
        <time>2018-05-03T13:21:09.000Z</time>
      </trkpt>
      <trkpt lat="48.51429" lon="-3.4347">
        <ele>182.26</ele>
        <time>2018-05-03T13:21:19.000Z</time>
      </trkpt>
      <trkpt lat="48.51435" lon="-3.43461">
        <ele>181.28</ele>
        <time>2018-05-03T13:21:29.000Z</time>
      </trkpt>
      <trkpt lat="48.51437" lon="-3.43454">
        <ele>178.57</ele>
        <time>2018-05-03T13:21:39.000Z</time>
      </trkpt>
      <trkpt lat="48.51438" lon="-3.43442">
        <ele>174.32</ele>
        <time>2018-05-03T13:21:49.000Z</time>
      </trkpt>
      <trkpt lat="48.51435" lon="-3.43424">
        <ele>173.26</ele>
        <time>2018-05-03T13:21:59.000Z</time>
      </trkpt>
      <trkpt lat="48.51429" lon="-3.43408">
        <ele>173.5</ele>
        <time>2018-05-03T13:22:09.000Z</time>
      </trkpt>
      <trkpt lat="48.51424" lon="-3.43393">
        <ele>174.26</ele>
        <time>2018-05-03T13:22:19.000Z</time>
      </trkpt>
      <trkpt lat="48.51417" lon="-3.43381">
        <ele>174.26</ele>
        <time>2018-05-03T13:22:29.000Z</time>
      </trkpt>
      <trkpt lat="48.51409" lon="-3.4337">
        <ele>170.28</ele>
        <time>2018-05-03T13:22:39.000Z</time>
      </trkpt>
      <trkpt lat="48.514" lon="-3.43358">
        <ele>169.51</ele>
        <time>2018-05-03T13:22:49.000Z</time>
      </trkpt>
      <trkpt lat="48.5139" lon="-3.43346">
        <ele>169.26</ele>
        <time>2018-05-03T13:22:59.000Z</time>
      </trkpt>
      <trkpt lat="48.51383" lon="-3.43337">
        <ele>169.31</ele>
        <time>2018-05-03T13:23:09.000Z</time>
      </trkpt>
      <trkpt lat="48.51375" lon="-3.43329">
        <ele>168.27</ele>
        <time>2018-05-03T13:23:19.000Z</time>
      </trkpt>
      <trkpt lat="48.51367" lon="-3.43319">
        <ele>168.32</ele>
        <time>2018-05-03T13:23:29.000Z</time>
      </trkpt>
      <trkpt lat="48.51361" lon="-3.43312">
        <ele>167.51</ele>
        <time>2018-05-03T13:23:39.000Z</time>
      </trkpt>
      <trkpt lat="48.51354" lon="-3.43305">
        <ele>166.08</ele>
        <time>2018-05-03T13:23:49.000Z</time>
      </trkpt>
      <trkpt lat="48.51339" lon="-3.43293">
        <ele>166.51</ele>
        <time>2018-05-03T13:23:59.000Z</time>
      </trkpt>
      <trkpt lat="48.51327" lon="-3.43285">
        <ele>168.14</ele>
        <time>2018-05-03T13:24:09.000Z</time>
      </trkpt>
      <trkpt lat="48.5132" lon="-3.43284">
        <ele>164.02</ele>
        <time>2018-05-03T13:24:19.000Z</time>
      </trkpt>
      <trkpt lat="48.51307" lon="-3.4328">
        <ele>166.51</ele>
        <time>2018-05-03T13:24:29.000Z</time>
      </trkpt>
      <trkpt lat="48.51295" lon="-3.43275">
        <ele>164.53</ele>
        <time>2018-05-03T13:24:39.000Z</time>
      </trkpt>
      <trkpt lat="48.51282" lon="-3.4327">
        <ele>160.26</ele>
        <time>2018-05-03T13:24:49.000Z</time>
      </trkpt>
      <trkpt lat="48.51272" lon="-3.43261">
        <ele>159.94</ele>
        <time>2018-05-03T13:24:59.000Z</time>
      </trkpt>
      <trkpt lat="48.51264" lon="-3.43251">
        <ele>159.26</ele>
        <time>2018-05-03T13:25:09.000Z</time>
      </trkpt>
      <trkpt lat="48.51256" lon="-3.43242">
        <ele>158.26</ele>
        <time>2018-05-03T13:25:19.000Z</time>
      </trkpt>
      <trkpt lat="48.51247" lon="-3.43237">
        <ele>156.26</ele>
        <time>2018-05-03T13:25:29.000Z</time>
      </trkpt>
      <trkpt lat="48.51235" lon="-3.4323">
        <ele>155.57</ele>
        <time>2018-05-03T13:25:39.000Z</time>
      </trkpt>
      <trkpt lat="48.51224" lon="-3.43222">
        <ele>158.26</ele>
        <time>2018-05-03T13:25:49.000Z</time>
      </trkpt>
      <trkpt lat="48.51211" lon="-3.43221">
        <ele>151.59</ele>
        <time>2018-05-03T13:25:59.000Z</time>
      </trkpt>
      <trkpt lat="48.51201" lon="-3.4322">
        <ele>150.52</ele>
        <time>2018-05-03T13:26:09.000Z</time>
      </trkpt>
      <trkpt lat="48.51191" lon="-3.4321">
        <ele>150.27</ele>
        <time>2018-05-03T13:26:19.000Z</time>
      </trkpt>
      <trkpt lat="48.51182" lon="-3.43204">
        <ele>149.32</ele>
        <time>2018-05-03T13:26:29.000Z</time>
      </trkpt>
      <trkpt lat="48.5117" lon="-3.43194">
        <ele>149.28</ele>
        <time>2018-05-03T13:26:39.000Z</time>
      </trkpt>
      <trkpt lat="48.51161" lon="-3.43186">
        <ele>148.28</ele>
        <time>2018-05-03T13:26:49.000Z</time>
      </trkpt>
      <trkpt lat="48.5116" lon="-3.43185">
        <ele>150.26</ele>
        <time>2018-05-03T13:26:59.000Z</time>
      </trkpt>
      <trkpt lat="48.51161" lon="-3.43184">
        <ele>151.26</ele>
        <time>2018-05-03T13:27:53.000Z</time>
      </trkpt>
      <trkpt lat="48.51158" lon="-3.43168">
        <ele>154.26</ele>
        <time>2018-05-03T13:28:03.000Z</time>
      </trkpt>
      <trkpt lat="48.51161" lon="-3.43154">
        <ele>153.32</ele>
        <time>2018-05-03T13:28:13.000Z</time>
      </trkpt>
      <trkpt lat="48.51164" lon="-3.43137">
        <ele>154.2</ele>
        <time>2018-05-03T13:28:23.000Z</time>
      </trkpt>
      <trkpt lat="48.51167" lon="-3.4312">
        <ele>154.5</ele>
        <time>2018-05-03T13:28:33.000Z</time>
      </trkpt>
      <trkpt lat="48.51168" lon="-3.43103">
        <ele>155</ele>
        <time>2018-05-03T13:28:43.000Z</time>
      </trkpt>
      <trkpt lat="48.5117" lon="-3.43082">
        <ele>156.94</ele>
        <time>2018-05-03T13:28:53.000Z</time>
      </trkpt>
      <trkpt lat="48.51172" lon="-3.43067">
        <ele>156.33</ele>
        <time>2018-05-03T13:29:03.000Z</time>
      </trkpt>
      <trkpt lat="48.51175" lon="-3.4305">
        <ele>155.26</ele>
        <time>2018-05-03T13:29:13.000Z</time>
      </trkpt>
      <trkpt lat="48.51176" lon="-3.43034">
        <ele>153.28</ele>
        <time>2018-05-03T13:29:23.000Z</time>
      </trkpt>
      <trkpt lat="48.51179" lon="-3.43016">
        <ele>154.2</ele>
        <time>2018-05-03T13:29:33.000Z</time>
      </trkpt>
      <trkpt lat="48.51182" lon="-3.43001">
        <ele>153.51</ele>
        <time>2018-05-03T13:29:43.000Z</time>
      </trkpt>
      <trkpt lat="48.51185" lon="-3.42985">
        <ele>151.22</ele>
        <time>2018-05-03T13:29:53.000Z</time>
      </trkpt>
      <trkpt lat="48.51188" lon="-3.4297">
        <ele>150.51</ele>
        <time>2018-05-03T13:30:03.000Z</time>
      </trkpt>
      <trkpt lat="48.51193" lon="-3.42956">
        <ele>149.51</ele>
        <time>2018-05-03T13:30:13.000Z</time>
      </trkpt>
      <trkpt lat="48.51199" lon="-3.42939">
        <ele>151.26</ele>
        <time>2018-05-03T13:30:23.000Z</time>
      </trkpt>
      <trkpt lat="48.51204" lon="-3.42926">
        <ele>150.28</ele>
        <time>2018-05-03T13:30:33.000Z</time>
      </trkpt>
      <trkpt lat="48.5121" lon="-3.42913">
        <ele>147.27</ele>
        <time>2018-05-03T13:30:43.000Z</time>
      </trkpt>
      <trkpt lat="48.51215" lon="-3.42897">
        <ele>147.08</ele>
        <time>2018-05-03T13:30:53.000Z</time>
      </trkpt>
      <trkpt lat="48.51214" lon="-3.42878">
        <ele>148.51</ele>
        <time>2018-05-03T13:31:03.000Z</time>
      </trkpt>
      <trkpt lat="48.51206" lon="-3.42863">
        <ele>144.59</ele>
        <time>2018-05-03T13:31:13.000Z</time>
      </trkpt>
      <trkpt lat="48.512" lon="-3.4285">
        <ele>142.27</ele>
        <time>2018-05-03T13:31:23.000Z</time>
      </trkpt>
      <trkpt lat="48.51193" lon="-3.42837">
        <ele>145</ele>
        <time>2018-05-03T13:31:33.000Z</time>
      </trkpt>
      <trkpt lat="48.51187" lon="-3.42827">
        <ele>145.02</ele>
        <time>2018-05-03T13:31:43.000Z</time>
      </trkpt>
      <trkpt lat="48.51182" lon="-3.42817">
        <ele>146.33</ele>
        <time>2018-05-03T13:31:53.000Z</time>
      </trkpt>
      <trkpt lat="48.51174" lon="-3.42805">
        <ele>145.27</ele>
        <time>2018-05-03T13:32:03.000Z</time>
      </trkpt>
      <trkpt lat="48.51167" lon="-3.42795">
        <ele>147.08</ele>
        <time>2018-05-03T13:32:13.000Z</time>
      </trkpt>
      <trkpt lat="48.5116" lon="-3.42784">
        <ele>147.45</ele>
        <time>2018-05-03T13:32:23.000Z</time>
      </trkpt>
      <trkpt lat="48.51151" lon="-3.42772">
        <ele>145.53</ele>
        <time>2018-05-03T13:32:33.000Z</time>
      </trkpt>
      <trkpt lat="48.51146" lon="-3.42759">
        <ele>144.27</ele>
        <time>2018-05-03T13:32:43.000Z</time>
      </trkpt>
      <trkpt lat="48.51143" lon="-3.42746">
        <ele>148.5</ele>
        <time>2018-05-03T13:32:53.000Z</time>
      </trkpt>
      <trkpt lat="48.51134" lon="-3.42729">
        <ele>148.21</ele>
        <time>2018-05-03T13:33:03.000Z</time>
      </trkpt>
      <trkpt lat="48.51132" lon="-3.42717">
        <ele>143.34</ele>
        <time>2018-05-03T13:33:13.000Z</time>
      </trkpt>
      <trkpt lat="48.51128" lon="-3.42703">
        <ele>142.26</ele>
        <time>2018-05-03T13:33:23.000Z</time>
      </trkpt>
      <trkpt lat="48.51127" lon="-3.42686">
        <ele>145.06</ele>
        <time>2018-05-03T13:33:33.000Z</time>
      </trkpt>
      <trkpt lat="48.51122" lon="-3.42675">
        <ele>145.45</ele>
        <time>2018-05-03T13:33:43.000Z</time>
      </trkpt>
      <trkpt lat="48.51121" lon="-3.42662">
        <ele>145.03</ele>
        <time>2018-05-03T13:33:53.000Z</time>
      </trkpt>
      <trkpt lat="48.51112" lon="-3.42645">
        <ele>142.34</ele>
        <time>2018-05-03T13:34:03.000Z</time>
      </trkpt>
      <trkpt lat="48.51108" lon="-3.42637">
        <ele>141.52</ele>
        <time>2018-05-03T13:34:13.000Z</time>
      </trkpt>
      <trkpt lat="48.51102" lon="-3.42627">
        <ele>141.27</ele>
        <time>2018-05-03T13:34:23.000Z</time>
      </trkpt>
      <trkpt lat="48.51094" lon="-3.42615">
        <ele>141.97</ele>
        <time>2018-05-03T13:34:33.000Z</time>
      </trkpt>
      <trkpt lat="48.51088" lon="-3.42608">
        <ele>142.5</ele>
        <time>2018-05-03T13:34:43.000Z</time>
      </trkpt>
      <trkpt lat="48.51083" lon="-3.42594">
        <ele>140.03</ele>
        <time>2018-05-03T13:34:53.000Z</time>
      </trkpt>
      <trkpt lat="48.51076" lon="-3.42582">
        <ele>138.28</ele>
        <time>2018-05-03T13:35:03.000Z</time>
      </trkpt>
      <trkpt lat="48.51073" lon="-3.42573">
        <ele>139.31</ele>
        <time>2018-05-03T13:35:13.000Z</time>
      </trkpt>
      <trkpt lat="48.51067" lon="-3.42559">
        <ele>139.27</ele>
        <time>2018-05-03T13:35:23.000Z</time>
      </trkpt>
      <trkpt lat="48.51062" lon="-3.42548">
        <ele>139.33</ele>
        <time>2018-05-03T13:35:33.000Z</time>
      </trkpt>
      <trkpt lat="48.51053" lon="-3.42538">
        <ele>139.26</ele>
        <time>2018-05-03T13:35:43.000Z</time>
      </trkpt>
      <trkpt lat="48.51046" lon="-3.42533">
        <ele>137.02</ele>
        <time>2018-05-03T13:35:53.000Z</time>
      </trkpt>
      <trkpt lat="48.51038" lon="-3.42527">
        <ele>137.03</ele>
        <time>2018-05-03T13:36:03.000Z</time>
      </trkpt>
      <trkpt lat="48.50984" lon="-3.42497">
        <ele>141.34</ele>
        <time>2018-05-03T13:36:39.000Z</time>
      </trkpt>
      <trkpt lat="48.50993" lon="-3.42495">
        <ele>137.24</ele>
        <time>2018-05-03T13:36:49.000Z</time>
      </trkpt>
      <trkpt lat="48.50988" lon="-3.42491">
        <ele>137.22</ele>
        <time>2018-05-03T13:36:59.000Z</time>
      </trkpt>
      <trkpt lat="48.50981" lon="-3.42488">
        <ele>134.52</ele>
        <time>2018-05-03T13:37:09.000Z</time>
      </trkpt>
      <trkpt lat="48.5097" lon="-3.42484">
        <ele>134.95</ele>
        <time>2018-05-03T13:37:19.000Z</time>
      </trkpt>
      <trkpt lat="48.50969" lon="-3.42485">
        <ele>135.27</ele>
        <time>2018-05-03T13:37:29.000Z</time>
      </trkpt>
      <trkpt lat="48.50966" lon="-3.42501">
        <ele>135.22</ele>
        <time>2018-05-03T13:37:39.000Z</time>
      </trkpt>
      <trkpt lat="48.50963" lon="-3.42515">
        <ele>135.45</ele>
        <time>2018-05-03T13:37:49.000Z</time>
      </trkpt>
      <trkpt lat="48.5096" lon="-3.42532">
        <ele>136.27</ele>
        <time>2018-05-03T13:37:59.000Z</time>
      </trkpt>
      <trkpt lat="48.50957" lon="-3.42547">
        <ele>136.34</ele>
        <time>2018-05-03T13:38:09.000Z</time>
      </trkpt>
      <trkpt lat="48.50954" lon="-3.42564">
        <ele>136.28</ele>
        <time>2018-05-03T13:38:19.000Z</time>
      </trkpt>
      <trkpt lat="48.5095" lon="-3.42581">
        <ele>137.25</ele>
        <time>2018-05-03T13:38:29.000Z</time>
      </trkpt>
      <trkpt lat="48.50949" lon="-3.42593">
        <ele>132.5</ele>
        <time>2018-05-03T13:38:39.000Z</time>
      </trkpt>
      <trkpt lat="48.50945" lon="-3.42613">
        <ele>133.25</ele>
        <time>2018-05-03T13:38:49.000Z</time>
      </trkpt>
      <trkpt lat="48.50941" lon="-3.42632">
        <ele>135.45</ele>
        <time>2018-05-03T13:38:59.000Z</time>
      </trkpt>
      <trkpt lat="48.50935" lon="-3.42647">
        <ele>138.44</ele>
        <time>2018-05-03T13:39:09.000Z</time>
      </trkpt>
      <trkpt lat="48.50933" lon="-3.42648">
        <ele>136.27</ele>
        <time>2018-05-03T13:39:19.000Z</time>
      </trkpt>
      <trkpt lat="48.50929" lon="-3.42658">
        <ele>134.39</ele>
        <time>2018-05-03T13:39:29.000Z</time>
      </trkpt>
      <trkpt lat="48.5092" lon="-3.42646">
        <ele>132.27</ele>
        <time>2018-05-03T13:39:39.000Z</time>
      </trkpt>
      <trkpt lat="48.50919" lon="-3.42632">
        <ele>131.27</ele>
        <time>2018-05-03T13:39:49.000Z</time>
      </trkpt>
      <trkpt lat="48.50916" lon="-3.42618">
        <ele>127.33</ele>
        <time>2018-05-03T13:39:59.000Z</time>
      </trkpt>
      <trkpt lat="48.5091" lon="-3.42603">
        <ele>123.21</ele>
        <time>2018-05-03T13:40:09.000Z</time>
      </trkpt>
      <trkpt lat="48.50906" lon="-3.42601">
        <ele>122.52</ele>
        <time>2018-05-03T13:40:19.000Z</time>
      </trkpt>
      <trkpt lat="48.50908" lon="-3.42609">
        <ele>123.25</ele>
        <time>2018-05-03T13:40:29.000Z</time>
      </trkpt>
      <trkpt lat="48.50909" lon="-3.42609">
        <ele>121.27</ele>
        <time>2018-05-03T13:40:39.000Z</time>
      </trkpt>
      <trkpt lat="48.50909" lon="-3.42613">
        <ele>122.25</ele>
        <time>2018-05-03T13:40:49.000Z</time>
      </trkpt>
      <trkpt lat="48.5091" lon="-3.42617">
        <ele>125.2</ele>
        <time>2018-05-03T13:40:59.000Z</time>
      </trkpt>
      <trkpt lat="48.50912" lon="-3.42616">
        <ele>123.77</ele>
        <time>2018-05-03T13:41:15.000Z</time>
      </trkpt>
      <trkpt lat="48.5091" lon="-3.42616">
        <ele>125</ele>
        <time>2018-05-03T13:41:25.000Z</time>
      </trkpt>
      <trkpt lat="48.5091" lon="-3.42617">
        <ele>125.27</ele>
        <time>2018-05-03T13:41:35.000Z</time>
      </trkpt>
      <trkpt lat="48.50908" lon="-3.42619">
        <ele>125.27</ele>
        <time>2018-05-03T13:42:11.000Z</time>
      </trkpt>
      <trkpt lat="48.50892" lon="-3.42625">
        <ele>124.33</ele>
        <time>2018-05-03T13:42:21.000Z</time>
      </trkpt>
      <trkpt lat="48.50879" lon="-3.42631">
        <ele>124.5</ele>
        <time>2018-05-03T13:42:31.000Z</time>
      </trkpt>
      <trkpt lat="48.50863" lon="-3.42678">
        <ele>126.03</ele>
        <time>2018-05-03T13:43:10.000Z</time>
      </trkpt>
      <trkpt lat="48.50859" lon="-3.42694">
        <ele>121.04</ele>
        <time>2018-05-03T13:43:20.000Z</time>
      </trkpt>
      <trkpt lat="48.50849" lon="-3.42703">
        <ele>123.33</ele>
        <time>2018-05-03T13:43:30.000Z</time>
      </trkpt>
      <trkpt lat="48.50841" lon="-3.42711">
        <ele>123.27</ele>
        <time>2018-05-03T13:43:40.000Z</time>
      </trkpt>
      <trkpt lat="48.50837" lon="-3.42724">
        <ele>127.51</ele>
        <time>2018-05-03T13:43:50.000Z</time>
      </trkpt>
      <trkpt lat="48.50827" lon="-3.42737">
        <ele>131.09</ele>
        <time>2018-05-03T13:44:00.000Z</time>
      </trkpt>
      <trkpt lat="48.50818" lon="-3.42744">
        <ele>131.51</ele>
        <time>2018-05-03T13:44:10.000Z</time>
      </trkpt>
      <trkpt lat="48.50812" lon="-3.42753">
        <ele>132.25</ele>
        <time>2018-05-03T13:44:20.000Z</time>
      </trkpt>
      <trkpt lat="48.50806" lon="-3.4276">
        <ele>128.28</ele>
        <time>2018-05-03T13:44:30.000Z</time>
      </trkpt>
      <trkpt lat="48.50792" lon="-3.42763">
        <ele>130.28</ele>
        <time>2018-05-03T13:44:40.000Z</time>
      </trkpt>
      <trkpt lat="48.50786" lon="-3.42759">
        <ele>127.58</ele>
        <time>2018-05-03T13:44:50.000Z</time>
      </trkpt>
      <trkpt lat="48.5078" lon="-3.42763">
        <ele>128.31</ele>
        <time>2018-05-03T13:45:00.000Z</time>
      </trkpt>
      <trkpt lat="48.50777" lon="-3.42763">
        <ele>126.51</ele>
        <time>2018-05-03T13:45:10.000Z</time>
      </trkpt>
      <trkpt lat="48.50775" lon="-3.42765">
        <ele>126.52</ele>
        <time>2018-05-03T13:45:23.000Z</time>
      </trkpt>
      <trkpt lat="48.50765" lon="-3.42761">
        <ele>129.31</ele>
        <time>2018-05-03T13:45:33.000Z</time>
      </trkpt>
      <trkpt lat="48.50749" lon="-3.42751">
        <ele>128.47</ele>
        <time>2018-05-03T13:45:43.000Z</time>
      </trkpt>
      <trkpt lat="48.5074" lon="-3.42744">
        <ele>127.48</ele>
        <time>2018-05-03T13:45:53.000Z</time>
      </trkpt>
      <trkpt lat="48.5073" lon="-3.42748">
        <ele>130.32</ele>
        <time>2018-05-03T13:46:03.000Z</time>
      </trkpt>
      <trkpt lat="48.50724" lon="-3.42751">
        <ele>133.14</ele>
        <time>2018-05-03T13:46:13.000Z</time>
      </trkpt>
      <trkpt lat="48.50716" lon="-3.42754">
        <ele>131.19</ele>
        <time>2018-05-03T13:46:23.000Z</time>
      </trkpt>
      <trkpt lat="48.507" lon="-3.42756">
        <ele>128.98</ele>
        <time>2018-05-03T13:46:33.000Z</time>
      </trkpt>
      <trkpt lat="48.50693" lon="-3.42756">
        <ele>135.25</ele>
        <time>2018-05-03T13:46:43.000Z</time>
      </trkpt>
      <trkpt lat="48.50691" lon="-3.42753">
        <ele>138.95</ele>
        <time>2018-05-03T13:46:53.000Z</time>
      </trkpt>
      <trkpt lat="48.50675" lon="-3.42758">
        <ele>136.44</ele>
        <time>2018-05-03T13:47:03.000Z</time>
      </trkpt>
      <trkpt lat="48.50671" lon="-3.42759">
        <ele>140.74</ele>
        <time>2018-05-03T13:47:13.000Z</time>
      </trkpt>
      <trkpt lat="48.50661" lon="-3.42753">
        <ele>140.22</ele>
        <time>2018-05-03T13:47:23.000Z</time>
      </trkpt>
      <trkpt lat="48.50654" lon="-3.42755">
        <ele>138.2</ele>
        <time>2018-05-03T13:47:33.000Z</time>
      </trkpt>
      <trkpt lat="48.50651" lon="-3.42757">
        <ele>137.33</ele>
        <time>2018-05-03T13:47:57.000Z</time>
      </trkpt>
      <trkpt lat="48.50649" lon="-3.42756">
        <ele>139.25</ele>
        <time>2018-05-03T13:48:07.000Z</time>
      </trkpt>
      <trkpt lat="48.50623" lon="-3.42748">
        <ele>140.65</ele>
        <time>2018-05-03T13:48:17.000Z</time>
      </trkpt>
      <trkpt lat="48.50608" lon="-3.42742">
        <ele>144.38</ele>
        <time>2018-05-03T13:48:27.000Z</time>
      </trkpt>
      <trkpt lat="48.50592" lon="-3.42743">
        <ele>138.44</ele>
        <time>2018-05-03T13:48:37.000Z</time>
      </trkpt>
      <trkpt lat="48.50578" lon="-3.42748">
        <ele>135.11</ele>
        <time>2018-05-03T13:48:47.000Z</time>
      </trkpt>
      <trkpt lat="48.50569" lon="-3.42747">
        <ele>134.58</ele>
        <time>2018-05-03T13:48:57.000Z</time>
      </trkpt>
      <trkpt lat="48.50562" lon="-3.42746">
        <ele>141.21</ele>
        <time>2018-05-03T13:49:07.000Z</time>
      </trkpt>
      <trkpt lat="48.50555" lon="-3.42748">
        <ele>144.84</ele>
        <time>2018-05-03T13:49:17.000Z</time>
      </trkpt>
      <trkpt lat="48.50545" lon="-3.42748">
        <ele>147.25</ele>
        <time>2018-05-03T13:49:27.000Z</time>
      </trkpt>
      <trkpt lat="48.50543" lon="-3.42749">
        <ele>146.27</ele>
        <time>2018-05-03T13:49:37.000Z</time>
      </trkpt>
      <trkpt lat="48.50542" lon="-3.42749">
        <ele>146.27</ele>
        <time>2018-05-03T13:49:47.000Z</time>
      </trkpt>
      <trkpt lat="48.50529" lon="-3.42747">
        <ele>149.18</ele>
        <time>2018-05-03T13:49:57.000Z</time>
      </trkpt>
      <trkpt lat="48.50512" lon="-3.4276">
        <ele>146.89</ele>
        <time>2018-05-03T13:50:07.000Z</time>
      </trkpt>
      <trkpt lat="48.50504" lon="-3.42757">
        <ele>148.03</ele>
        <time>2018-05-03T13:50:17.000Z</time>
      </trkpt>
      <trkpt lat="48.50506" lon="-3.42756">
        <ele>149.95</ele>
        <time>2018-05-03T13:50:27.000Z</time>
      </trkpt>
      <trkpt lat="48.50512" lon="-3.42756">
        <ele>151.33</ele>
        <time>2018-05-03T13:50:37.000Z</time>
      </trkpt>
      <trkpt lat="48.50511" lon="-3.42757">
        <ele>150.27</ele>
        <time>2018-05-03T13:50:50.000Z</time>
      </trkpt>
      <trkpt lat="48.5051" lon="-3.42766">
        <ele>146.66</ele>
        <time>2018-05-03T13:51:00.000Z</time>
      </trkpt>
      <trkpt lat="48.50503" lon="-3.42782">
        <ele>142.75</ele>
        <time>2018-05-03T13:51:10.000Z</time>
      </trkpt>
      <trkpt lat="48.50496" lon="-3.42792">
        <ele>140.36</ele>
        <time>2018-05-03T13:51:20.000Z</time>
      </trkpt>
      <trkpt lat="48.50489" lon="-3.42802">
        <ele>149</ele>
        <time>2018-05-03T13:51:30.000Z</time>
      </trkpt>
      <trkpt lat="48.50485" lon="-3.42815">
        <ele>151.26</ele>
        <time>2018-05-03T13:51:40.000Z</time>
      </trkpt>
      <trkpt lat="48.50476" lon="-3.42824">
        <ele>150.33</ele>
        <time>2018-05-03T13:51:50.000Z</time>
      </trkpt>
      <trkpt lat="48.50465" lon="-3.4283">
        <ele>152.75</ele>
        <time>2018-05-03T13:52:00.000Z</time>
      </trkpt>
      <trkpt lat="48.50462" lon="-3.4284">
        <ele>152.61</ele>
        <time>2018-05-03T13:52:10.000Z</time>
      </trkpt>
      <trkpt lat="48.50461" lon="-3.42846">
        <ele>154.12</ele>
        <time>2018-05-03T13:52:20.000Z</time>
      </trkpt>
      <trkpt lat="48.50448" lon="-3.42852">
        <ele>152.02</ele>
        <time>2018-05-03T13:52:30.000Z</time>
      </trkpt>
      <trkpt lat="48.50449" lon="-3.42855">
        <ele>154.2</ele>
        <time>2018-05-03T13:52:42.000Z</time>
      </trkpt>
      <trkpt lat="48.50447" lon="-3.42854">
        <ele>155.06</ele>
        <time>2018-05-03T13:52:52.000Z</time>
      </trkpt>
      <trkpt lat="48.50433" lon="-3.42853">
        <ele>159.23</ele>
        <time>2018-05-03T13:53:02.000Z</time>
      </trkpt>
      <trkpt lat="48.50426" lon="-3.42851">
        <ele>164.25</ele>
        <time>2018-05-03T13:53:12.000Z</time>
      </trkpt>
      <trkpt lat="48.50425" lon="-3.42853">
        <ele>164.21</ele>
        <time>2018-05-03T13:53:22.000Z</time>
      </trkpt>
      <trkpt lat="48.5042" lon="-3.42854">
        <ele>165.02</ele>
        <time>2018-05-03T13:53:33.000Z</time>
      </trkpt>
      <trkpt lat="48.50409" lon="-3.42852">
        <ele>168.25</ele>
        <time>2018-05-03T13:53:43.000Z</time>
      </trkpt>
      <trkpt lat="48.50405" lon="-3.42854">
        <ele>166.27</ele>
        <time>2018-05-03T13:53:53.000Z</time>
      </trkpt>
      <trkpt lat="48.50396" lon="-3.42851">
        <ele>171.02</ele>
        <time>2018-05-03T13:54:03.000Z</time>
      </trkpt>
      <trkpt lat="48.50386" lon="-3.42849">
        <ele>169.52</ele>
        <time>2018-05-03T13:54:13.000Z</time>
      </trkpt>
      <trkpt lat="48.50377" lon="-3.42846">
        <ele>170.21</ele>
        <time>2018-05-03T13:54:23.000Z</time>
      </trkpt>
      <trkpt lat="48.50372" lon="-3.42847">
        <ele>171.27</ele>
        <time>2018-05-03T13:54:33.000Z</time>
      </trkpt>
      <trkpt lat="48.50369" lon="-3.42847">
        <ele>171.27</ele>
        <time>2018-05-03T13:54:43.000Z</time>
      </trkpt>
      <trkpt lat="48.50361" lon="-3.42847">
        <ele>173</ele>
        <time>2018-05-03T13:54:53.000Z</time>
      </trkpt>
      <trkpt lat="48.50361" lon="-3.42845">
        <ele>172.27</ele>
        <time>2018-05-03T13:55:03.000Z</time>
      </trkpt>
      <trkpt lat="48.50359" lon="-3.42845">
        <ele>169.52</ele>
        <time>2018-05-03T13:55:25.000Z</time>
      </trkpt>
      <trkpt lat="48.50355" lon="-3.42844">
        <ele>174.2</ele>
        <time>2018-05-03T13:55:35.000Z</time>
      </trkpt>
      <trkpt lat="48.50356" lon="-3.42846">
        <ele>174.27</ele>
        <time>2018-05-03T13:56:30.000Z</time>
      </trkpt>
      <trkpt lat="48.50345" lon="-3.42857">
        <ele>177.2</ele>
        <time>2018-05-03T13:56:40.000Z</time>
      </trkpt>
      <trkpt lat="48.50343" lon="-3.42856">
        <ele>178.26</ele>
        <time>2018-05-03T13:56:50.000Z</time>
      </trkpt>
      <trkpt lat="48.50331" lon="-3.42852">
        <ele>181.45</ele>
        <time>2018-05-03T13:57:00.000Z</time>
      </trkpt>
      <trkpt lat="48.50321" lon="-3.42853">
        <ele>175.6</ele>
        <time>2018-05-03T13:57:10.000Z</time>
      </trkpt>
      <trkpt lat="48.50317" lon="-3.42851">
        <ele>173.72</ele>
        <time>2018-05-03T13:57:20.000Z</time>
      </trkpt>
      <trkpt lat="48.50301" lon="-3.42841">
        <ele>177.5</ele>
        <time>2018-05-03T13:57:30.000Z</time>
      </trkpt>
      <trkpt lat="48.50297" lon="-3.42839">
        <ele>179.26</ele>
        <time>2018-05-03T13:57:43.000Z</time>
      </trkpt>
      <trkpt lat="48.50291" lon="-3.42828">
        <ele>178.57</ele>
        <time>2018-05-03T13:57:53.000Z</time>
      </trkpt>
      <trkpt lat="48.50282" lon="-3.42835">
        <ele>176.02</ele>
        <time>2018-05-03T13:58:03.000Z</time>
      </trkpt>
      <trkpt lat="48.50278" lon="-3.42833">
        <ele>176.2</ele>
        <time>2018-05-03T13:58:13.000Z</time>
      </trkpt>
      <trkpt lat="48.50277" lon="-3.42833">
        <ele>176.27</ele>
        <time>2018-05-03T13:58:32.000Z</time>
      </trkpt>
      <trkpt lat="48.50257" lon="-3.42816">
        <ele>180.88</ele>
        <time>2018-05-03T13:58:42.000Z</time>
      </trkpt>
      <trkpt lat="48.50245" lon="-3.42816">
        <ele>177.34</ele>
        <time>2018-05-03T13:58:52.000Z</time>
      </trkpt>
      <trkpt lat="48.5023" lon="-3.42812">
        <ele>177.2</ele>
        <time>2018-05-03T13:59:02.000Z</time>
      </trkpt>
      <trkpt lat="48.50222" lon="-3.42809">
        <ele>180.51</ele>
        <time>2018-05-03T13:59:12.000Z</time>
      </trkpt>
      <trkpt lat="48.5022" lon="-3.42806">
        <ele>178.52</ele>
        <time>2018-05-03T13:59:22.000Z</time>
      </trkpt>
      <trkpt lat="48.50198" lon="-3.42794">
        <ele>179.25</ele>
        <time>2018-05-03T13:59:32.000Z</time>
      </trkpt>
      <trkpt lat="48.50186" lon="-3.4279">
        <ele>179.29</ele>
        <time>2018-05-03T13:59:42.000Z</time>
      </trkpt>
      <trkpt lat="48.50186" lon="-3.42792">
        <ele>182.01</ele>
        <time>2018-05-03T13:59:52.000Z</time>
      </trkpt>
      <trkpt lat="48.50182" lon="-3.42795">
        <ele>182.03</ele>
        <time>2018-05-03T14:00:02.000Z</time>
      </trkpt>
      <trkpt lat="48.50181" lon="-3.42798">
        <ele>178.99</ele>
        <time>2018-05-03T14:00:12.000Z</time>
      </trkpt>
      <trkpt lat="48.50169" lon="-3.42811">
        <ele>183.95</ele>
        <time>2018-05-03T14:00:22.000Z</time>
      </trkpt>
      <trkpt lat="48.50163" lon="-3.42823">
        <ele>183.96</ele>
        <time>2018-05-03T14:00:32.000Z</time>
      </trkpt>
      <trkpt lat="48.50157" lon="-3.42836">
        <ele>184.27</ele>
        <time>2018-05-03T14:00:42.000Z</time>
      </trkpt>
      <trkpt lat="48.50148" lon="-3.42845">
        <ele>182</ele>
        <time>2018-05-03T14:00:52.000Z</time>
      </trkpt>
      <trkpt lat="48.50145" lon="-3.42851">
        <ele>183.26</ele>
        <time>2018-05-03T14:01:02.000Z</time>
      </trkpt>
      <trkpt lat="48.50138" lon="-3.42865">
        <ele>182.84</ele>
        <time>2018-05-03T14:01:12.000Z</time>
      </trkpt>
      <trkpt lat="48.50131" lon="-3.4287">
        <ele>187.2</ele>
        <time>2018-05-03T14:01:22.000Z</time>
      </trkpt>
      <trkpt lat="48.50124" lon="-3.42883">
        <ele>185.95</ele>
        <time>2018-05-03T14:01:32.000Z</time>
      </trkpt>
      <trkpt lat="48.50125" lon="-3.42885">
        <ele>182.28</ele>
        <time>2018-05-03T14:01:42.000Z</time>
      </trkpt>
      <trkpt lat="48.50124" lon="-3.42888">
        <ele>182.26</ele>
        <time>2018-05-03T14:01:54.000Z</time>
      </trkpt>
      <trkpt lat="48.50117" lon="-3.42903">
        <ele>182.22</ele>
        <time>2018-05-03T14:02:04.000Z</time>
      </trkpt>
      <trkpt lat="48.50112" lon="-3.42912">
        <ele>183.27</ele>
        <time>2018-05-03T14:02:14.000Z</time>
      </trkpt>
      <trkpt lat="48.50107" lon="-3.42914">
        <ele>183.37</ele>
        <time>2018-05-03T14:02:24.000Z</time>
      </trkpt>
      <trkpt lat="48.50096" lon="-3.42926">
        <ele>186.25</ele>
        <time>2018-05-03T14:02:34.000Z</time>
      </trkpt>
      <trkpt lat="48.50089" lon="-3.42934">
        <ele>185.9</ele>
        <time>2018-05-03T14:02:44.000Z</time>
      </trkpt>
      <trkpt lat="48.50086" lon="-3.42949">
        <ele>183.08</ele>
        <time>2018-05-03T14:02:54.000Z</time>
      </trkpt>
      <trkpt lat="48.50083" lon="-3.42948">
        <ele>180.27</ele>
        <time>2018-05-03T14:03:04.000Z</time>
      </trkpt>
      <trkpt lat="48.50082" lon="-3.42948">
        <ele>181.26</ele>
        <time>2018-05-03T14:03:14.000Z</time>
      </trkpt>
      <trkpt lat="48.50074" lon="-3.42953">
        <ele>179.23</ele>
        <time>2018-05-03T14:03:24.000Z</time>
      </trkpt>
      <trkpt lat="48.50072" lon="-3.42961">
        <ele>182.25</ele>
        <time>2018-05-03T14:03:34.000Z</time>
      </trkpt>
      <trkpt lat="48.50066" lon="-3.4297">
        <ele>185.95</ele>
        <time>2018-05-03T14:03:44.000Z</time>
      </trkpt>
      <trkpt lat="48.50066" lon="-3.42972">
        <ele>186.26</ele>
        <time>2018-05-03T14:03:54.000Z</time>
      </trkpt>
      <trkpt lat="48.50061" lon="-3.42983">
        <ele>188.21</ele>
        <time>2018-05-03T14:04:04.000Z</time>
      </trkpt>
      <trkpt lat="48.50054" lon="-3.42991">
        <ele>185.55</ele>
        <time>2018-05-03T14:04:14.000Z</time>
      </trkpt>
      <trkpt lat="48.50049" lon="-3.42998">
        <ele>188</ele>
        <time>2018-05-03T14:04:24.000Z</time>
      </trkpt>
      <trkpt lat="48.50047" lon="-3.43007">
        <ele>190.14</ele>
        <time>2018-05-03T14:04:34.000Z</time>
      </trkpt>
      <trkpt lat="48.50039" lon="-3.43012">
        <ele>190.26</ele>
        <time>2018-05-03T14:04:44.000Z</time>
      </trkpt>
      <trkpt lat="48.50028" lon="-3.43021">
        <ele>184.25</ele>
        <time>2018-05-03T14:04:54.000Z</time>
      </trkpt>
      <trkpt lat="48.50028" lon="-3.43033">
        <ele>183.57</ele>
        <time>2018-05-03T14:05:04.000Z</time>
      </trkpt>
      <trkpt lat="48.50023" lon="-3.4304">
        <ele>184.22</ele>
        <time>2018-05-03T14:05:14.000Z</time>
      </trkpt>
      <trkpt lat="48.50014" lon="-3.43047">
        <ele>180.53</ele>
        <time>2018-05-03T14:05:24.000Z</time>
      </trkpt>
      <trkpt lat="48.50007" lon="-3.4306">
        <ele>184.99</ele>
        <time>2018-05-03T14:05:34.000Z</time>
      </trkpt>
      <trkpt lat="48.50009" lon="-3.43065">
        <ele>186.31</ele>
        <time>2018-05-03T14:05:44.000Z</time>
      </trkpt>
      <trkpt lat="48.50007" lon="-3.43069">
        <ele>189.06</ele>
        <time>2018-05-03T14:05:54.000Z</time>
      </trkpt>
      <trkpt lat="48.50006" lon="-3.43071">
        <ele>190.01</ele>
        <time>2018-05-03T14:06:45.000Z</time>
      </trkpt>
      <trkpt lat="48.50005" lon="-3.43073">
        <ele>190.26</ele>
        <time>2018-05-03T14:06:55.000Z</time>
      </trkpt>
      <trkpt lat="48.50005" lon="-3.43074">
        <ele>191.01</ele>
        <time>2018-05-03T14:07:52.000Z</time>
      </trkpt>
      <trkpt lat="48.50007" lon="-3.43075">
        <ele>187.31</ele>
        <time>2018-05-03T14:08:02.000Z</time>
      </trkpt>
      <trkpt lat="48.50006" lon="-3.43075">
        <ele>190.47</ele>
        <time>2018-05-03T14:08:40.000Z</time>
      </trkpt>
      <trkpt lat="48.50008" lon="-3.43076">
        <ele>188.26</ele>
        <time>2018-05-03T14:08:50.000Z</time>
      </trkpt>
      <trkpt lat="48.50008" lon="-3.43078">
        <ele>188.26</ele>
        <time>2018-05-03T14:09:04.000Z</time>
      </trkpt>
      <trkpt lat="48.50008" lon="-3.43094">
        <ele>186.48</ele>
        <time>2018-05-03T14:09:14.000Z</time>
      </trkpt>
      <trkpt lat="48.50015" lon="-3.43107">
        <ele>187.08</ele>
        <time>2018-05-03T14:09:24.000Z</time>
      </trkpt>
      <trkpt lat="48.50022" lon="-3.43125">
        <ele>188.05</ele>
        <time>2018-05-03T14:09:34.000Z</time>
      </trkpt>
      <trkpt lat="48.50016" lon="-3.43135">
        <ele>188.4</ele>
        <time>2018-05-03T14:09:44.000Z</time>
      </trkpt>
      <trkpt lat="48.50024" lon="-3.43155">
        <ele>191.23</ele>
        <time>2018-05-03T14:09:54.000Z</time>
      </trkpt>
      <trkpt lat="48.50025" lon="-3.43172">
        <ele>188.88</ele>
        <time>2018-05-03T14:10:04.000Z</time>
      </trkpt>
      <trkpt lat="48.5003" lon="-3.4319">
        <ele>189.99</ele>
        <time>2018-05-03T14:10:14.000Z</time>
      </trkpt>
      <trkpt lat="48.50036" lon="-3.432">
        <ele>188.53</ele>
        <time>2018-05-03T14:10:24.000Z</time>
      </trkpt>
      <trkpt lat="48.50028" lon="-3.4322">
        <ele>186.21</ele>
        <time>2018-05-03T14:10:34.000Z</time>
      </trkpt>
      <trkpt lat="48.50037" lon="-3.43239">
        <ele>189.32</ele>
        <time>2018-05-03T14:10:44.000Z</time>
      </trkpt>
      <trkpt lat="48.50036" lon="-3.43259">
        <ele>188.2</ele>
        <time>2018-05-03T14:10:54.000Z</time>
      </trkpt>
      <trkpt lat="48.50044" lon="-3.43278">
        <ele>190.18</ele>
        <time>2018-05-03T14:11:04.000Z</time>
      </trkpt>
      <trkpt lat="48.50046" lon="-3.43294">
        <ele>192.07</ele>
        <time>2018-05-03T14:11:14.000Z</time>
      </trkpt>
      <trkpt lat="48.50049" lon="-3.4331">
        <ele>187.28</ele>
        <time>2018-05-03T14:11:24.000Z</time>
      </trkpt>
      <trkpt lat="48.50051" lon="-3.43327">
        <ele>187.5</ele>
        <time>2018-05-03T14:11:34.000Z</time>
      </trkpt>
      <trkpt lat="48.50056" lon="-3.43341">
        <ele>187.02</ele>
        <time>2018-05-03T14:11:44.000Z</time>
      </trkpt>
      <trkpt lat="48.50059" lon="-3.43358">
        <ele>185.09</ele>
        <time>2018-05-03T14:11:54.000Z</time>
      </trkpt>
      <trkpt lat="48.5006" lon="-3.43377">
        <ele>185.07</ele>
        <time>2018-05-03T14:12:04.000Z</time>
      </trkpt>
      <trkpt lat="48.50061" lon="-3.43394">
        <ele>187.99</ele>
        <time>2018-05-03T14:12:14.000Z</time>
      </trkpt>
      <trkpt lat="48.50065" lon="-3.43419">
        <ele>189.27</ele>
        <time>2018-05-03T14:12:24.000Z</time>
      </trkpt>
      <trkpt lat="48.50071" lon="-3.43438">
        <ele>191.01</ele>
        <time>2018-05-03T14:12:34.000Z</time>
      </trkpt>
      <trkpt lat="48.50069" lon="-3.43458">
        <ele>192.95</ele>
        <time>2018-05-03T14:12:44.000Z</time>
      </trkpt>
      <trkpt lat="48.50072" lon="-3.43464">
        <ele>188.33</ele>
        <time>2018-05-03T14:12:54.000Z</time>
      </trkpt>
      <trkpt lat="48.50075" lon="-3.43477">
        <ele>187.08</ele>
        <time>2018-05-03T14:13:04.000Z</time>
      </trkpt>
      <trkpt lat="48.50078" lon="-3.43498">
        <ele>187.01</ele>
        <time>2018-05-03T14:13:14.000Z</time>
      </trkpt>
      <trkpt lat="48.50081" lon="-3.43513">
        <ele>185.26</ele>
        <time>2018-05-03T14:13:24.000Z</time>
      </trkpt>
      <trkpt lat="48.50085" lon="-3.4353">
        <ele>185.45</ele>
        <time>2018-05-03T14:13:34.000Z</time>
      </trkpt>
      <trkpt lat="48.50087" lon="-3.43549">
        <ele>186.03</ele>
        <time>2018-05-03T14:13:44.000Z</time>
      </trkpt>
      <trkpt lat="48.50091" lon="-3.43564">
        <ele>184.26</ele>
        <time>2018-05-03T14:13:54.000Z</time>
      </trkpt>
      <trkpt lat="48.50093" lon="-3.43582">
        <ele>185.26</ele>
        <time>2018-05-03T14:14:04.000Z</time>
      </trkpt>
      <trkpt lat="48.50095" lon="-3.43598">
        <ele>182.27</ele>
        <time>2018-05-03T14:14:14.000Z</time>
      </trkpt>
      <trkpt lat="48.50097" lon="-3.43615">
        <ele>180.26</ele>
        <time>2018-05-03T14:14:24.000Z</time>
      </trkpt>
      <trkpt lat="48.50097" lon="-3.43636">
        <ele>180.03</ele>
        <time>2018-05-03T14:14:34.000Z</time>
      </trkpt>
      <trkpt lat="48.50099" lon="-3.43655">
        <ele>181.01</ele>
        <time>2018-05-03T14:14:44.000Z</time>
      </trkpt>
      <trkpt lat="48.50107" lon="-3.43667">
        <ele>176.51</ele>
        <time>2018-05-03T14:14:54.000Z</time>
      </trkpt>
      <trkpt lat="48.50112" lon="-3.43684">
        <ele>178.31</ele>
        <time>2018-05-03T14:15:04.000Z</time>
      </trkpt>
      <trkpt lat="48.5012" lon="-3.43695">
        <ele>175.5</ele>
        <time>2018-05-03T14:15:14.000Z</time>
      </trkpt>
      <trkpt lat="48.50126" lon="-3.43704">
        <ele>174.26</ele>
        <time>2018-05-03T14:15:24.000Z</time>
      </trkpt>
      <trkpt lat="48.50134" lon="-3.43713">
        <ele>171.26</ele>
        <time>2018-05-03T14:15:34.000Z</time>
      </trkpt>
      <trkpt lat="48.50145" lon="-3.43723">
        <ele>173.51</ele>
        <time>2018-05-03T14:15:44.000Z</time>
      </trkpt>
      <trkpt lat="48.50153" lon="-3.4373">
        <ele>167.28</ele>
        <time>2018-05-03T14:15:54.000Z</time>
      </trkpt>
      <trkpt lat="48.50163" lon="-3.43739">
        <ele>166.27</ele>
        <time>2018-05-03T14:16:04.000Z</time>
      </trkpt>
      <trkpt lat="48.5017" lon="-3.43748">
        <ele>163.06</ele>
        <time>2018-05-03T14:16:14.000Z</time>
      </trkpt>
      <trkpt lat="48.50179" lon="-3.43756">
        <ele>161.28</ele>
        <time>2018-05-03T14:16:24.000Z</time>
      </trkpt>
      <trkpt lat="48.50189" lon="-3.43768">
        <ele>161.24</ele>
        <time>2018-05-03T14:16:34.000Z</time>
      </trkpt>
      <trkpt lat="48.50198" lon="-3.43782">
        <ele>160.21</ele>
        <time>2018-05-03T14:16:44.000Z</time>
      </trkpt>
      <trkpt lat="48.50207" lon="-3.43793">
        <ele>158.46</ele>
        <time>2018-05-03T14:16:54.000Z</time>
      </trkpt>
      <trkpt lat="48.50214" lon="-3.43806">
        <ele>157.01</ele>
        <time>2018-05-03T14:17:04.000Z</time>
      </trkpt>
      <trkpt lat="48.50218" lon="-3.43824">
        <ele>154.34</ele>
        <time>2018-05-03T14:17:14.000Z</time>
      </trkpt>
      <trkpt lat="48.5022" lon="-3.43838">
        <ele>155.28</ele>
        <time>2018-05-03T14:17:24.000Z</time>
      </trkpt>
      <trkpt lat="48.50224" lon="-3.43852">
        <ele>154.26</ele>
        <time>2018-05-03T14:17:34.000Z</time>
      </trkpt>
      <trkpt lat="48.50226" lon="-3.43867">
        <ele>153.19</ele>
        <time>2018-05-03T14:17:44.000Z</time>
      </trkpt>
      <trkpt lat="48.50235" lon="-3.4388">
        <ele>153.95</ele>
        <time>2018-05-03T14:17:54.000Z</time>
      </trkpt>
      <trkpt lat="48.50231" lon="-3.43903">
        <ele>157.11</ele>
        <time>2018-05-03T14:18:04.000Z</time>
      </trkpt>
      <trkpt lat="48.50236" lon="-3.43927">
        <ele>166.23</ele>
        <time>2018-05-03T14:18:14.000Z</time>
      </trkpt>
      <trkpt lat="48.50235" lon="-3.43951">
        <ele>162.93</ele>
        <time>2018-05-03T14:18:24.000Z</time>
      </trkpt>
      <trkpt lat="48.5024" lon="-3.43959">
        <ele>161.38</ele>
        <time>2018-05-03T14:18:34.000Z</time>
      </trkpt>
      <trkpt lat="48.50244" lon="-3.43972">
        <ele>156.25</ele>
        <time>2018-05-03T14:18:44.000Z</time>
      </trkpt>
      <trkpt lat="48.50247" lon="-3.43989">
        <ele>158.02</ele>
        <time>2018-05-03T14:18:54.000Z</time>
      </trkpt>
      <trkpt lat="48.50247" lon="-3.44003">
        <ele>154.76</ele>
        <time>2018-05-03T14:19:04.000Z</time>
      </trkpt>
      <trkpt lat="48.5025" lon="-3.44024">
        <ele>155.01</ele>
        <time>2018-05-03T14:19:14.000Z</time>
      </trkpt>
      <trkpt lat="48.50251" lon="-3.44035">
        <ele>154.55</ele>
        <time>2018-05-03T14:19:24.000Z</time>
      </trkpt>
      <trkpt lat="48.5025" lon="-3.44053">
        <ele>154.25</ele>
        <time>2018-05-03T14:19:34.000Z</time>
      </trkpt>
      <trkpt lat="48.50243" lon="-3.44074">
        <ele>152.29</ele>
        <time>2018-05-03T14:19:44.000Z</time>
      </trkpt>
      <trkpt lat="48.50242" lon="-3.4409">
        <ele>151.39</ele>
        <time>2018-05-03T14:19:54.000Z</time>
      </trkpt>
      <trkpt lat="48.50246" lon="-3.44105">
        <ele>151.26</ele>
        <time>2018-05-03T14:20:04.000Z</time>
      </trkpt>
      <trkpt lat="48.50251" lon="-3.44119">
        <ele>152.26</ele>
        <time>2018-05-03T14:20:14.000Z</time>
      </trkpt>
      <trkpt lat="48.50256" lon="-3.44133">
        <ele>151.51</ele>
        <time>2018-05-03T14:20:24.000Z</time>
      </trkpt>
      <trkpt lat="48.50264" lon="-3.4415">
        <ele>154.99</ele>
        <time>2018-05-03T14:20:34.000Z</time>
      </trkpt>
      <trkpt lat="48.50274" lon="-3.44164">
        <ele>161.79</ele>
        <time>2018-05-03T14:20:44.000Z</time>
      </trkpt>
      <trkpt lat="48.50271" lon="-3.4419">
        <ele>163.24</ele>
        <time>2018-05-03T14:20:54.000Z</time>
      </trkpt>
      <trkpt lat="48.50275" lon="-3.44202">
        <ele>161.38</ele>
        <time>2018-05-03T14:21:04.000Z</time>
      </trkpt>
      <trkpt lat="48.50279" lon="-3.44215">
        <ele>159.22</ele>
        <time>2018-05-03T14:21:14.000Z</time>
      </trkpt>
      <trkpt lat="48.50282" lon="-3.44225">
        <ele>158.12</ele>
        <time>2018-05-03T14:21:24.000Z</time>
      </trkpt>
      <trkpt lat="48.50285" lon="-3.44246">
        <ele>160.01</ele>
        <time>2018-05-03T14:21:34.000Z</time>
      </trkpt>
      <trkpt lat="48.50299" lon="-3.44269">
        <ele>161.22</ele>
        <time>2018-05-03T14:21:44.000Z</time>
      </trkpt>
      <trkpt lat="48.50293" lon="-3.44265">
        <ele>160.21</ele>
        <time>2018-05-03T14:21:54.000Z</time>
      </trkpt>
      <trkpt lat="48.50286" lon="-3.44287">
        <ele>161.03</ele>
        <time>2018-05-03T14:22:04.000Z</time>
      </trkpt>
      <trkpt lat="48.50278" lon="-3.44299">
        <ele>162.32</ele>
        <time>2018-05-03T14:22:14.000Z</time>
      </trkpt>
      <trkpt lat="48.50275" lon="-3.44311">
        <ele>164.51</ele>
        <time>2018-05-03T14:22:24.000Z</time>
      </trkpt>
      <trkpt lat="48.50266" lon="-3.44329">
        <ele>166.7</ele>
        <time>2018-05-03T14:22:34.000Z</time>
      </trkpt>
      <trkpt lat="48.50261" lon="-3.44337">
        <ele>162.45</ele>
        <time>2018-05-03T14:22:44.000Z</time>
      </trkpt>
      <trkpt lat="48.5026" lon="-3.44351">
        <ele>161.02</ele>
        <time>2018-05-03T14:22:54.000Z</time>
      </trkpt>
      <trkpt lat="48.50259" lon="-3.44367">
        <ele>159.26</ele>
        <time>2018-05-03T14:23:04.000Z</time>
      </trkpt>
      <trkpt lat="48.50255" lon="-3.44385">
        <ele>163.44</ele>
        <time>2018-05-03T14:23:14.000Z</time>
      </trkpt>
      <trkpt lat="48.50248" lon="-3.44403">
        <ele>162.19</ele>
        <time>2018-05-03T14:23:24.000Z</time>
      </trkpt>
      <trkpt lat="48.50247" lon="-3.44422">
        <ele>166.99</ele>
        <time>2018-05-03T14:23:34.000Z</time>
      </trkpt>
      <trkpt lat="48.50245" lon="-3.44438">
        <ele>165.58</ele>
        <time>2018-05-03T14:23:44.000Z</time>
      </trkpt>
      <trkpt lat="48.5024" lon="-3.44456">
        <ele>166.01</ele>
        <time>2018-05-03T14:23:54.000Z</time>
      </trkpt>
      <trkpt lat="48.50238" lon="-3.44477">
        <ele>165.21</ele>
        <time>2018-05-03T14:24:04.000Z</time>
      </trkpt>
      <trkpt lat="48.50242" lon="-3.44491">
        <ele>174.88</ele>
        <time>2018-05-03T14:24:14.000Z</time>
      </trkpt>
      <trkpt lat="48.50248" lon="-3.44506">
        <ele>175.65</ele>
        <time>2018-05-03T14:24:24.000Z</time>
      </trkpt>
      <trkpt lat="48.50255" lon="-3.44521">
        <ele>174.25</ele>
        <time>2018-05-03T14:24:34.000Z</time>
      </trkpt>
      <trkpt lat="48.50258" lon="-3.44538">
        <ele>175.24</ele>
        <time>2018-05-03T14:24:44.000Z</time>
      </trkpt>
      <trkpt lat="48.50257" lon="-3.44549">
        <ele>173.26</ele>
        <time>2018-05-03T14:24:54.000Z</time>
      </trkpt>
      <trkpt lat="48.50256" lon="-3.44572">
        <ele>174.21</ele>
        <time>2018-05-03T14:25:04.000Z</time>
      </trkpt>
      <trkpt lat="48.50259" lon="-3.44581">
        <ele>170.25</ele>
        <time>2018-05-03T14:25:14.000Z</time>
      </trkpt>
      <trkpt lat="48.50259" lon="-3.44599">
        <ele>172.25</ele>
        <time>2018-05-03T14:25:24.000Z</time>
      </trkpt>
      <trkpt lat="48.50256" lon="-3.44612">
        <ele>171.07</ele>
        <time>2018-05-03T14:25:34.000Z</time>
      </trkpt>
      <trkpt lat="48.50258" lon="-3.44616">
        <ele>167.82</ele>
        <time>2018-05-03T14:25:44.000Z</time>
      </trkpt>
      <trkpt lat="48.50256" lon="-3.44638">
        <ele>173.94</ele>
        <time>2018-05-03T14:25:54.000Z</time>
      </trkpt>
      <trkpt lat="48.50259" lon="-3.44648">
        <ele>170.55</ele>
        <time>2018-05-03T14:26:04.000Z</time>
      </trkpt>
      <trkpt lat="48.50259" lon="-3.44667">
        <ele>174.07</ele>
        <time>2018-05-03T14:26:14.000Z</time>
      </trkpt>
      <trkpt lat="48.50258" lon="-3.44681">
        <ele>175.25</ele>
        <time>2018-05-03T14:26:24.000Z</time>
      </trkpt>
      <trkpt lat="48.50262" lon="-3.44693">
        <ele>179.21</ele>
        <time>2018-05-03T14:26:34.000Z</time>
      </trkpt>
      <trkpt lat="48.50261" lon="-3.44701">
        <ele>179.58</ele>
        <time>2018-05-03T14:26:44.000Z</time>
      </trkpt>
      <trkpt lat="48.50258" lon="-3.44715">
        <ele>181.62</ele>
        <time>2018-05-03T14:26:54.000Z</time>
      </trkpt>
      <trkpt lat="48.50258" lon="-3.44728">
        <ele>180.27</ele>
        <time>2018-05-03T14:27:04.000Z</time>
      </trkpt>
      <trkpt lat="48.50256" lon="-3.4474">
        <ele>180.26</ele>
        <time>2018-05-03T14:27:14.000Z</time>
      </trkpt>
      <trkpt lat="48.50257" lon="-3.4475">
        <ele>180.06</ele>
        <time>2018-05-03T14:27:24.000Z</time>
      </trkpt>
      <trkpt lat="48.50258" lon="-3.44751">
        <ele>179.32</ele>
        <time>2018-05-03T14:27:29.000Z</time>
      </trkpt>
    </trkseg>
  </trk>
</gpx>